Provisional Data: Little Juniata River near Tipton, PA


Please select a monitoring station.
Please select start date.
Please select start date.

Toggle Unit: C/F Toggle Unit: C/F
Sample Time Temperature (C) Temperature (F) Specific Conductivity (mS/cm) pH   Turbidity (NTU+) DO (mg/L)
1/12/2021 12:00:00 AM 2.55 36.59 0.242 7.66 2.49 13.05
1/12/2021 12:15:00 AM 2.54 36.572 0.243 7.66 2.83 13.05
1/12/2021 12:30:00 AM 2.53 36.554 0.243 7.62 2.47 13.05
1/12/2021 12:45:00 AM 2.52 36.536 0.243 7.66 2.61 13.05
1/12/2021 1:00:00 AM 2.5 36.5 0.243 7.65 2.55 13.05
1/12/2021 1:15:00 AM 2.49 36.482 0.242 7.65 2.57 13.05
1/12/2021 1:30:00 AM 2.47 36.446 0.242 7.65 2.48 13.06
1/12/2021 1:45:00 AM 2.44 36.392 0.241 7.61 2.67 13.07
1/12/2021 2:00:00 AM 2.42 36.356 0.241 7.62 2.53 13.08
1/12/2021 2:15:00 AM 2.4 36.32 0.242 7.64 2.54 13.08
1/12/2021 2:30:00 AM 2.38 36.284 0.243 7.65 2.54 13.09
1/12/2021 2:45:00 AM 2.36 36.248 0.244 7.6 2.49 13.09
1/12/2021 3:00:00 AM 2.34 36.212 0.244 7.61 2.66 13.1
1/12/2021 3:15:00 AM 2.33 36.194 0.245 7.65 2.56 13.1
1/12/2021 3:30:00 AM 2.31 36.158 0.244 7.63 2.58 13.11
1/12/2021 3:45:00 AM 2.29 36.122 0.244 7.64 2.49 13.11
1/12/2021 4:00:00 AM 2.28 36.104 0.243 7.63 2.61 13.12
1/12/2021 4:15:00 AM 2.27 36.086 0.242 7.64 2.88 13.13
1/12/2021 4:30:00 AM 2.26 36.068 0.242 7.59 2.65 13.15
1/12/2021 4:45:00 AM 2.25 36.05 0.242 7.64 2.65 13.14
1/12/2021 5:00:00 AM 2.23 36.014 0.243 7.59 2.48 13.15
1/12/2021 5:15:00 AM 2.21 35.978 0.244 7.64 2.73 13.16
1/12/2021 5:30:00 AM 2.19 35.942 0.244 7.64 2.67 13.16
1/12/2021 5:45:00 AM 2.18 35.924 0.245 7.6 2.56 13.17
1/12/2021 6:00:00 AM 2.17 35.906 0.245 7.64 2.65 13.18
1/12/2021 6:15:00 AM 2.15 35.87 0.245 7.59 2.7 13.18
1/12/2021 6:30:00 AM 2.13 35.834 0.244 7.63 2.95 13.19
1/12/2021 6:45:00 AM 2.11 35.798 0.243 7.6 2.6 13.21
1/12/2021 7:00:00 AM 2.09 35.762 0.243 7.61 2.65 13.22
1/12/2021 7:15:00 AM 2.08 35.744 0.242 7.64 2.73 13.23
1/12/2021 7:30:00 AM 2.06 35.708 0.243 7.58 2.62 13.23
1/12/2021 7:45:00 AM 2.05 35.69 0.243 7.61 2.7 13.25
1/12/2021 8:00:00 AM 2.04 35.672 0.244 7.65 2.59 13.29
1/12/2021 8:15:00 AM 2.03 35.654 0.245 7.66 2.61 13.37
1/12/2021 8:30:00 AM 2.04 35.672 0.245 7.66 2.5 13.47
1/12/2021 8:45:00 AM 2.05 35.69 0.244 7.7 2.54 13.58
1/12/2021 9:00:00 AM 2.06 35.708 0.244 7.72 2.65 13.68
1/12/2021 9:15:00 AM 2.07 35.726 0.244 7.71 2.61 13.77
1/12/2021 9:30:00 AM 2.08 35.744 0.243 7.77 2.55 13.88
1/12/2021 9:45:00 AM 2.12 35.816 0.242 7.8 2.54 14
1/12/2021 10:00:00 AM 2.22 35.996 0.241 7.83 2.45 14.12
1/12/2021 10:15:00 AM 2.24 36.032 0.241 7.87 2.47 14.21
1/12/2021 10:30:00 AM 2.28 36.104 0.242 7.9 2.51 14.29
1/12/2021 10:45:00 AM 2.37 36.266 0.242 7.91 2.57 14.37
1/12/2021 11:00:00 AM 2.49 36.482 0.243 7.98 2.66 14.45
1/12/2021 11:15:00 AM 2.66 36.788 0.243 7.98 2.58 14.51
1/12/2021 11:30:00 AM 2.8 37.04 0.243 8.06 2.73 14.56
1/12/2021 11:45:00 AM 2.87 37.166 0.243 8.07 2.61 14.59
1/12/2021 12:00:00 PM 2.92 37.256 0.242 8.12 2.75 14.61
1/12/2021 12:15:00 PM 2.98 37.364 0.241 8.14 2.51 14.62
1/12/2021 12:30:00 PM 3.01 37.418 0.24 8.19 2.58 14.63
1/12/2021 12:45:00 PM 3.04 37.472 0.24 8.21 2.58 14.64
1/12/2021 1:00:00 PM 3.08 37.544 0.24 8.23 2.54 14.63
1/12/2021 1:15:00 PM 3.13 37.634 0.24 8.22 2.6 14.61
1/12/2021 1:30:00 PM 3.17 37.706 0.24 8.26 2.5 14.58
1/12/2021 1:45:00 PM 3.22 37.796 0.24 8.26 2.55 14.56
1/12/2021 2:00:00 PM 3.25 37.85 0.24 8.28 2.64 14.54
1/12/2021 2:15:00 PM 3.3 37.94 0.24 8.3 2.59 14.51
1/12/2021 2:30:00 PM 3.35 38.03 0.239 8.31 2.59 14.48
1/12/2021 2:45:00 PM 3.39 38.102 0.238 8.32 2.68 14.45
1/12/2021 3:00:00 PM 3.43 38.174 0.237 8.3 2.69 14.39
1/12/2021 3:15:00 PM 3.45 38.21 0.237 8.32 2.63 14.34
1/12/2021 3:30:00 PM 3.46 38.228 0.236 8.27 2.71 14.27
1/12/2021 3:45:00 PM 3.45 38.21 0.236 8.3 2.65 14.22
1/12/2021 4:00:00 PM 3.44 38.192 0.237 8.29 2.67 14.16
1/12/2021 4:15:00 PM 3.42 38.156 0.237 8.21 2.63 14.09
1/12/2021 4:30:00 PM 3.38 38.084 0.237 8.23 2.65 14.01
1/12/2021 4:45:00 PM 3.33 37.994 0.238 8.16 2.57 13.91
1/12/2021 5:00:00 PM 3.3 37.94 0.238 8.14 2.62 13.8
1/12/2021 5:15:00 PM 3.27 37.886 0.237 8.05 2.63 13.67
1/12/2021 5:30:00 PM 3.24 37.832 0.237 8.01 2.87 13.57
1/12/2021 5:45:00 PM 3.2 37.76 0.237 7.97 2.72 13.47
1/12/2021 6:00:00 PM 3.17 37.706 0.237 7.94 2.76 13.4
1/12/2021 6:15:00 PM 3.15 37.67 0.237 7.87 2.8 13.35
1/12/2021 6:30:00 PM 3.12 37.616 0.237 7.89 2.72 13.3
1/12/2021 6:45:00 PM 3.11 37.598 0.238 7.82 2.86 13.26
1/12/2021 7:00:00 PM 3.09 37.562 0.239 7.83 2.7 13.22
1/12/2021 7:15:00 PM 3.07 37.526 0.24 7.8 2.75 13.18
1/12/2021 7:30:00 PM 3.06 37.508 0.24 7.81 2.71 13.14
1/12/2021 7:45:00 PM 3.05 37.49 0.24 7.8 2.94 13.1
1/12/2021 8:00:00 PM 3.04 37.472 0.24 7.78 2.78 13.08
1/12/2021 8:15:00 PM 3.03 37.454 0.24 7.73 2.89 13.05
1/12/2021 8:30:00 PM 3.03 37.454 0.24 7.75 2.7 13.02
1/12/2021 8:45:00 PM 3.02 37.436 0.24 7.7 2.91 13
1/12/2021 9:00:00 PM 3.02 37.436 0.241 7.72 2.62 12.98
1/12/2021 9:15:00 PM 3.01 37.418 0.242 7.73 2.67 12.96
1/12/2021 9:30:00 PM 3.02 37.436 0.243 7.72 2.68 12.95
1/12/2021 9:45:00 PM 3.01 37.418 0.244 7.68 2.77 12.93
1/12/2021 10:00:00 PM 3.01 37.418 0.245 7.71 2.66 12.91
1/12/2021 10:15:00 PM 3.02 37.436 0.246 7.68 2.64 12.9
1/12/2021 10:30:00 PM 3.02 37.436 0.246 7.68 2.59 12.89
1/12/2021 10:45:00 PM 3.02 37.436 0.246 7.69 2.67 12.88
1/12/2021 11:00:00 PM 3.01 37.418 0.246 7.69 2.54 12.88
1/12/2021 11:15:00 PM 3.02 37.436 0.246 7.65 2.59 12.87
1/12/2021 11:30:00 PM 3.01 37.418 0.247 7.67 2.66 12.87
1/12/2021 11:45:00 PM 2.99 37.382 0.247 7.68 2.61 12.86
1/13/2021 12:00:00 AM 2.97 37.346 0.249 7.66 2.65 12.86
1/13/2021 12:15:00 AM 2.96 37.328 0.25 7.67 2.57 12.86
1/13/2021 12:30:00 AM 2.95 37.31 0.251 7.66 2.56 12.86
1/13/2021 12:45:00 AM 2.93 37.274 0.252 7.65 2.64 12.85
1/13/2021 1:00:00 AM 2.93 37.274 0.252 7.67 2.56 12.85
1/13/2021 1:15:00 AM 2.91 37.238 0.252 7.67 2.67 12.86
1/13/2021 1:30:00 AM 2.89 37.202 0.252 7.64 2.71 12.86
1/13/2021 1:45:00 AM 2.88 37.184 0.252 7.67 2.49 12.86
1/13/2021 2:00:00 AM 2.87 37.166 0.252 7.67 2.67 12.86
1/13/2021 2:15:00 AM 2.85 37.13 0.253 7.61 2.54 12.87
1/13/2021 2:30:00 AM 2.84 37.112 0.253 7.65 2.54 12.87
1/13/2021 2:45:00 AM 2.82 37.076 0.254 7.65 2.67 12.88
1/13/2021 3:00:00 AM 2.8 37.04 0.254 7.67 2.62 12.88
1/13/2021 3:15:00 AM 2.79 37.022 0.255 7.66 2.59 12.89
1/13/2021 3:30:00 AM 2.77 36.986 0.254 7.66 2.61 12.89
1/13/2021 3:45:00 AM 2.75 36.95 0.254 7.63 2.66 12.89
1/13/2021 4:00:00 AM 2.73 36.914 0.253 7.66 2.59 12.9
1/13/2021 4:15:00 AM 2.71 36.878 0.252 7.63 2.66 12.91
1/13/2021 4:30:00 AM 2.69 36.842 0.251 7.66 2.69 12.92
1/13/2021 4:45:00 AM 2.67 36.806 0.251 7.66 2.72 12.93
1/13/2021 5:00:00 AM 2.65 36.77 0.251 7.66 2.68 12.93
1/13/2021 5:15:00 AM 2.63 36.734 0.252 7.62 2.62 12.94
1/13/2021 5:30:00 AM 2.61 36.698 0.253 7.63 2.66 12.95
1/13/2021 5:45:00 AM 2.6 36.68 0.254 7.65 2.62 12.95
1/13/2021 6:00:00 AM 2.58 36.644 0.254 7.62 2.71 12.95
1/13/2021 6:15:00 AM 2.58 36.644 0.255 7.64 2.63 12.95
1/13/2021 6:30:00 AM 2.56 36.608 0.254 7.62 2.6 12.96
1/13/2021 6:45:00 AM 2.56 36.608 0.254 7.65 2.71 12.96
1/13/2021 7:00:00 AM 2.55 36.59 0.254 7.65 2.73 12.97
1/13/2021 7:15:00 AM 2.54 36.572 0.253 7.65 2.7 12.97
1/13/2021 7:30:00 AM 2.52 36.536 0.253 7.61 2.83 12.97
1/13/2021 7:45:00 AM 2.51 36.518 0.253 7.65 2.68 12.98
1/13/2021 8:00:00 AM 2.51 36.518 0.255 7.64 2.76 13.01
1/13/2021 8:15:00 AM 2.5 36.5 0.255 7.65 2.89 13.05
1/13/2021 8:30:00 AM 2.51 36.518 0.257 7.67 3.01 13.1
1/13/2021 8:45:00 AM 2.51 36.518 0.257 7.69 2.91 13.18
1/13/2021 9:00:00 AM 2.52 36.536 0.257 7.67 2.96 13.27
1/13/2021 9:15:00 AM 2.53 36.554 0.257 7.7 2.95 13.35
1/13/2021 9:30:00 AM 2.56 36.608 0.256 7.75 2.97 13.48
1/13/2021 9:45:00 AM 2.61 36.698 0.255 7.76 3.11 13.64
1/13/2021 10:00:00 AM 2.67 36.806 0.254 7.82 3.22 13.79
1/13/2021 10:15:00 AM 2.71 36.878 0.252 7.87 3.01 13.92
1/13/2021 10:30:00 AM 2.74 36.932 0.252 7.91 2.87 14.03
1/13/2021 10:45:00 AM 2.75 36.95 0.251 7.91 2.97 14.1
1/13/2021 11:00:00 AM 2.8 37.04 0.251 7.98 2.91 14.17
1/13/2021 11:15:00 AM 2.85 37.13 0.251 8.02 2.9 14.23
1/13/2021 11:30:00 AM 2.91 37.238 0.251 8.01 2.97 14.3
1/13/2021 11:45:00 AM 3.01 37.418 0.251 8.09 3.02 14.36
1/13/2021 12:00:00 PM 3.12 37.616 0.251 8.14 3.04 14.42
1/13/2021 12:15:00 PM 3.25 37.85 0.25 8.18 3.15 14.47
1/13/2021 12:30:00 PM 3.38 38.084 0.249 8.22 3 14.52
1/13/2021 12:45:00 PM 3.5 38.3 0.248 8.27 3.09 14.54
1/13/2021 1:00:00 PM 3.56 38.408 0.247 8.26 3.06 14.53
1/13/2021 1:15:00 PM 3.58 38.444 0.247 8.32 3.21 14.52
1/13/2021 1:30:00 PM 3.6 38.48 0.246 8.35 2.97 14.5
1/13/2021 1:45:00 PM 3.62 38.516 0.246 8.37 2.8 14.49
1/13/2021 2:00:00 PM 3.65 38.57 0.246 8.39 2.67 14.47
1/13/2021 2:15:00 PM 3.67 38.606 0.246 8.4 2.62 14.44
1/13/2021 2:30:00 PM 3.7 38.66 0.246 8.37 2.65 14.41
1/13/2021 2:45:00 PM 3.74 38.732 0.246 8.43 2.6 14.39
1/13/2021 3:00:00 PM 3.78 38.804 0.245 8.44 2.8 14.36
1/13/2021 3:15:00 PM 3.8 38.84 0.244 8.41 2.51 14.33
1/13/2021 3:30:00 PM 3.82 38.876 0.243 8.44 2.5 14.26
1/13/2021 3:45:00 PM 3.83 38.894 0.243 8.41 2.58 14.17
1/13/2021 4:00:00 PM 3.84 38.912 0.243 8.41 2.49 14.07
1/13/2021 4:15:00 PM 3.85 38.93 0.243 8.37 2.56 13.95
1/13/2021 4:30:00 PM 3.85 38.93 0.243 8.32 2.61 13.79
1/13/2021 4:45:00 PM 3.85 38.93 0.243 8.25 2.57 13.65
1/13/2021 5:00:00 PM 3.85 38.93 0.243 8.17 2.68 13.51
1/13/2021 5:15:00 PM 3.84 38.912 0.243 8.13 3.09 13.38
1/13/2021 5:30:00 PM 3.82 38.876 0.243 8.02 3.66 13.26
1/13/2021 5:45:00 PM 3.8 38.84 0.242 8.02 3 13.17
1/13/2021 6:00:00 PM 3.78 38.804 0.242 7.96 3.14 13.09
1/13/2021 6:15:00 PM 3.75 38.75 0.242 7.91 3.27 13.02
1/13/2021 6:30:00 PM 3.73 38.714 0.242 7.92 3.06 12.97
1/13/2021 6:45:00 PM 3.7 38.66 0.242 7.89 3.12 12.92
1/13/2021 7:00:00 PM 3.67 38.606 0.242 7.87 3.03 12.87
1/13/2021 7:15:00 PM 3.64 38.552 0.242 7.8 2.88 12.83
1/13/2021 7:30:00 PM 3.62 38.516 0.242 7.82 2.86 12.8
1/13/2021 7:45:00 PM 3.6 38.48 0.242 7.81 2.87 12.77
1/13/2021 8:00:00 PM 3.58 38.444 0.242 7.79 3.14 12.74
1/13/2021 8:15:00 PM 3.56 38.408 0.241 7.77 2.85 12.71
1/13/2021 8:30:00 PM 3.53 38.354 0.241 7.76 2.77 12.69
1/13/2021 8:45:00 PM 3.51 38.318 0.241 7.7 2.81 12.67
1/13/2021 9:00:00 PM 3.49 38.282 0.241 7.7 2.7 12.66
1/13/2021 9:15:00 PM 3.47 38.246 0.241 7.72 2.74 12.64
1/13/2021 9:30:00 PM 3.46 38.228 0.242 7.68 2.79 12.63
1/13/2021 9:45:00 PM 3.44 38.192 0.242 7.7 2.81 12.62
1/13/2021 10:00:00 PM 3.41 38.138 0.244 7.7 2.87 12.62
1/13/2021 10:15:00 PM 3.39 38.102 0.244 7.66 2.7 12.61
1/13/2021 10:30:00 PM 3.36 38.048 0.245 7.69 2.72 12.6
1/13/2021 10:45:00 PM 3.35 38.03 0.246 7.65 3.13 12.6
1/13/2021 11:00:00 PM 3.34 38.012 0.246 7.67 2.63 12.6
1/13/2021 11:15:00 PM 3.33 37.994 0.245 7.65 2.67 12.6
1/13/2021 11:30:00 PM 3.33 37.994 0.245 7.67 2.94 12.6
1/13/2021 11:45:00 PM 3.33 37.994 0.245 7.67 2.61 12.6
1/14/2021 12:00:00 AM 3.31 37.958 0.245 7.66 2.75 12.6
1/14/2021 12:15:00 AM 3.31 37.958 0.246 7.66 2.57 12.6
1/14/2021 12:30:00 AM 3.31 37.958 0.246 7.61 2.77 12.6
1/14/2021 12:45:00 AM 3.31 37.958 0.247 7.66 2.64 12.59
1/14/2021 1:00:00 AM 3.31 37.958 0.247 7.64 2.6 12.59
1/14/2021 1:15:00 AM 3.31 37.958 0.247 7.62 2.67 12.59
1/14/2021 1:30:00 AM 3.31 37.958 0.247 7.64 2.62 12.58
1/14/2021 1:45:00 AM 3.32 37.976 0.246 7.65 2.65 12.58
1/14/2021 2:00:00 AM 3.34 38.012 0.245 7.63 2.5 12.58
1/14/2021 2:15:00 AM 3.34 38.012 0.244 7.62 2.78 12.57
1/14/2021 2:30:00 AM 3.35 38.03 0.243 7.64 2.7 12.57
1/14/2021 2:45:00 AM 3.36 38.048 0.242 7.63 2.6 12.57
1/14/2021 3:00:00 AM 3.36 38.048 0.241 7.65 2.58 12.58
1/14/2021 3:15:00 AM 3.36 38.048 0.241 7.62 2.58 12.57
1/14/2021 3:30:00 AM 3.36 38.048 0.241 7.62 2.6 12.57
1/14/2021 3:45:00 AM 3.36 38.048 0.24 7.64 2.55 12.57
1/14/2021 4:00:00 AM 3.37 38.066 0.24 7.65 2.64 12.56
1/14/2021 4:15:00 AM 3.37 38.066 0.24 7.6 2.61 12.56
1/14/2021 4:30:00 AM 3.36 38.048 0.239 7.65 2.6 12.56
1/14/2021 4:45:00 AM 3.35 38.03 0.237 7.65 2.8 12.57
1/14/2021 5:00:00 AM 3.35 38.03 0.236 7.61 2.64 12.57
1/14/2021 5:15:00 AM 3.34 38.012 0.235 7.63 2.48 12.57
1/14/2021 5:30:00 AM 3.33 37.994 0.235 7.62 2.8 12.58
1/14/2021 5:45:00 AM 3.33 37.994 0.235 7.65 2.61 12.58
1/14/2021 6:00:00 AM 3.33 37.994 0.235 7.65 2.69 12.59
1/14/2021 6:15:00 AM 3.33 37.994 0.236 7.63 2.68 12.58
1/14/2021 6:30:00 AM 3.33 37.994 0.236 7.65 2.59 12.58
1/14/2021 6:45:00 AM 3.33 37.994 0.237 7.62 3.03 12.58
1/14/2021 7:00:00 AM 3.33 37.994 0.237 7.65 2.66 12.58
1/14/2021 7:15:00 AM 3.33 37.994 0.238 7.65 2.57 12.58
1/14/2021 7:30:00 AM 3.33 37.994 0.239 7.65 2.54 12.59
1/14/2021 7:45:00 AM 3.32 37.976 0.239 7.64 2.62 12.6
1/14/2021 8:00:00 AM 3.31 37.958 0.24 7.65 2.5 12.62
1/14/2021 8:15:00 AM 3.32 37.976 0.241 7.63 2.54 12.67
1/14/2021 8:30:00 AM 3.33 37.994 0.242 7.68 2.53 12.75
1/14/2021 8:45:00 AM 3.34 38.012 0.242 7.7 2.57 12.86
1/14/2021 9:00:00 AM 3.36 38.048 0.243 7.72 2.46 12.96
1/14/2021 9:15:00 AM 3.39 38.102 0.242 7.75 2.46 13.1
1/14/2021 9:30:00 AM 3.43 38.174 0.242 7.79 2.45 13.26
1/14/2021 9:45:00 AM 3.47 38.246 0.242 7.83 2.47 13.4
1/14/2021 10:00:00 AM 3.5 38.3 0.241 7.87 2.49 13.51
1/14/2021 10:15:00 AM 3.53 38.354 0.242 7.87 2.57 13.6
1/14/2021 10:30:00 AM 3.59 38.462 0.243 7.93 2.63 13.72
1/14/2021 10:45:00 AM 3.65 38.57 0.244 8 2.94 13.83
1/14/2021 11:00:00 AM 3.69 38.642 0.245 8.05 3.03 13.9
1/14/2021 11:15:00 AM 3.72 38.696 0.246 8.05 3.13 13.98
1/14/2021 11:30:00 AM 3.84 38.912 0.247 8.13 3.14 14.06
1/14/2021 11:45:00 AM 3.95 39.11 0.249 8.18 3.07 14.13
1/14/2021 12:00:00 PM 4.06 39.308 0.25 8.22 3.33 14.18
1/14/2021 12:15:00 PM 4.14 39.452 0.251 8.27 3.18 14.21
1/14/2021 12:30:00 PM 4.23 39.614 0.253 8.3 3.01 14.24
1/14/2021 12:45:00 PM 4.34 39.812 0.255 8.36 3.1 14.29
1/14/2021 1:00:00 PM 4.45 40.01 0.258 8.35 3.03 14.32
1/14/2021 1:15:00 PM 4.54 40.172 0.26 8.44 3.11 14.34
1/14/2021 1:30:00 PM 4.61 40.298 0.261 8.43 3.08 14.33
1/14/2021 1:45:00 PM 4.65 40.37 0.263 8.51 2.92 14.32
1/14/2021 2:00:00 PM 4.71 40.478 0.265 8.53 3.07 14.3
1/14/2021 2:15:00 PM 4.8 40.64 0.266 8.51 3.03 14.27
1/14/2021 2:30:00 PM 4.86 40.748 0.266 8.58 2.99 14.23
1/14/2021 2:45:00 PM 4.89 40.802 0.266 8.54 2.98 14.17
1/14/2021 3:00:00 PM 4.92 40.856 0.267 8.59 2.83 14.09
1/14/2021 3:15:00 PM 4.94 40.892 0.267 8.57 2.97 14.04
1/14/2021 3:30:00 PM 4.96 40.928 0.267 8.59 2.97 13.99
1/14/2021 3:45:00 PM 4.96 40.928 0.266 8.56 2.85 13.91
1/14/2021 4:00:00 PM 4.95 40.91 0.267 8.56 3.07 13.82
1/14/2021 4:15:00 PM 4.93 40.874 0.267 8.54 2.91 13.71
1/14/2021 4:30:00 PM 4.91 40.838 0.267 8.48 2.89 13.59
1/14/2021 4:45:00 PM 4.88 40.784 0.267 8.45 2.92 13.43
1/14/2021 5:00:00 PM 4.85 40.73 0.267 8.38 3.05 13.29
1/14/2021 5:15:00 PM 4.82 40.676 0.266 8.31 2.95 13.14
1/14/2021 5:30:00 PM 4.78 40.604 0.266 8.24 3.15 13
1/14/2021 5:45:00 PM 4.75 40.55 0.266 8.17 2.96 12.88
1/14/2021 6:00:00 PM 4.71 40.478 0.264 8.12 2.89 12.78
1/14/2021 6:15:00 PM 4.67 40.406 0.263 8.03 2.95 12.71
1/14/2021 6:30:00 PM 4.63 40.334 0.262 8.02 2.91 12.66
1/14/2021 6:45:00 PM 4.57 40.226 0.261 7.98 2.84 12.61
1/14/2021 7:00:00 PM 4.51 40.118 0.26 7.96 2.85 12.57
1/14/2021 7:15:00 PM 4.45 40.01 0.26 7.89 2.87 12.53
1/14/2021 7:30:00 PM 4.39 39.902 0.259 7.9 3.33 12.5
1/14/2021 7:45:00 PM 4.33 39.794 0.259 7.83 2.93 12.47
1/14/2021 8:00:00 PM 4.28 39.704 0.258 7.82 2.86 12.44
1/14/2021 8:15:00 PM 4.25 39.65 0.257 7.8 2.81 12.42
1/14/2021 8:30:00 PM 4.2 39.56 0.255 7.78 2.75 12.4
1/14/2021 8:45:00 PM 4.16 39.488 0.254 7.77 2.9 12.38
1/14/2021 9:00:00 PM 4.13 39.434 0.252 7.75 2.8 12.38
1/14/2021 9:15:00 PM 4.09 39.362 0.25 7.73 2.75 12.37
1/14/2021 9:30:00 PM 4.04 39.272 0.249 7.74 2.84 12.36
1/14/2021 9:45:00 PM 4 39.2 0.248 7.71 2.75 12.36
1/14/2021 10:00:00 PM 3.97 39.146 0.247 7.72 2.9 12.37
1/14/2021 10:15:00 PM 3.94 39.092 0.246 7.72 2.95 12.36
1/14/2021 10:30:00 PM 3.92 39.056 0.246 7.71 2.87 12.37
1/14/2021 10:45:00 PM 3.9 39.02 0.246 7.7 2.7 12.37
1/14/2021 11:00:00 PM 3.87 38.966 0.246 7.67 2.72 12.37
1/14/2021 11:15:00 PM 3.84 38.912 0.245 7.7 2.85 12.37
1/14/2021 11:30:00 PM 3.81 38.858 0.245 7.69 2.9 12.38
1/14/2021 11:45:00 PM 3.77 38.786 0.244 7.69 2.8 12.39
1/15/2021 12:00:00 AM 3.73 38.714 0.243 7.69 2.81 12.4
1/15/2021 12:15:00 AM 3.68 38.624 0.242 7.68 2.92 12.42
1/15/2021 12:30:00 AM 3.65 38.57 0.242 7.68 2.84 12.43
1/15/2021 12:45:00 AM 3.64 38.552 0.242 7.64 2.78 12.44
1/15/2021 1:00:00 AM 3.63 38.534 0.242 7.67 2.8 12.44
1/15/2021 1:15:00 AM 3.63 38.534 0.241 7.67 2.78 12.44
1/15/2021 1:30:00 AM 3.63 38.534 0.241 7.67 2.71 12.45
1/15/2021 1:45:00 AM 3.62 38.516 0.241 7.67 3.25 12.46
1/15/2021 2:00:00 AM 3.6 38.48 0.24 7.63 3.09 12.46
1/15/2021 2:15:00 AM 3.57 38.426 0.241 7.67 2.8 12.47
1/15/2021 2:30:00 AM 3.53 38.354 0.241 7.67 2.93 12.47
1/15/2021 2:45:00 AM 3.5 38.3 0.242 7.67 2.78 12.48
1/15/2021 3:00:00 AM 3.46 38.228 0.243 7.66 2.76 12.49
1/15/2021 3:15:00 AM 3.43 38.174 0.243 7.63 2.86 12.5
1/15/2021 3:30:00 AM 3.39 38.102 0.244 7.66 2.85 12.51
1/15/2021 3:45:00 AM 3.37 38.066 0.244 7.65 2.79 12.51
1/15/2021 4:00:00 AM 3.35 38.03 0.244 7.62 2.82 12.52
1/15/2021 4:15:00 AM 3.33 37.994 0.244 7.66 2.79 12.53
1/15/2021 4:30:00 AM 3.3 37.94 0.244 7.6 2.78 12.54
1/15/2021 4:45:00 AM 3.27 37.886 0.244 7.63 2.7 12.55
1/15/2021 5:00:00 AM 3.25 37.85 0.244 7.66 2.65 12.56
1/15/2021 5:15:00 AM 3.22 37.796 0.245 7.66 2.78 12.56
1/15/2021 5:30:00 AM 3.19 37.742 0.247 7.62 2.61 12.57
1/15/2021 5:45:00 AM 3.16 37.688 0.248 7.66 2.68 12.59
1/15/2021 6:00:00 AM 3.14 37.652 0.249 7.65 2.62 12.59
1/15/2021 6:15:00 AM 3.14 37.652 0.249 7.65 2.65 12.6
1/15/2021 6:30:00 AM 3.13 37.634 0.25 7.61 2.75 12.61
1/15/2021 6:45:00 AM 3.13 37.634 0.251 7.65 2.65 12.61
1/15/2021 7:00:00 AM 3.12 37.616 0.252 7.65 2.61 12.62
1/15/2021 7:15:00 AM 3.11 37.598 0.253 7.64 2.69 12.63
1/15/2021 7:30:00 AM 3.1 37.58 0.255 7.65 3.31 12.64
1/15/2021 7:45:00 AM 3.08 37.544 0.257 7.61 2.63 12.65
1/15/2021 8:00:00 AM 3.06 37.508 0.26 7.66 2.61 12.69
1/15/2021 8:15:00 AM 3.05 37.49 0.264 7.67 2.66 12.76
1/15/2021 8:30:00 AM 3.05 37.49 0.267 7.69 2.63 12.84
1/15/2021 8:45:00 AM 3.07 37.526 0.271 7.7 2.62 12.94
1/15/2021 9:00:00 AM 3.09 37.562 0.273 7.71 2.6 13.06
1/15/2021 9:15:00 AM 3.12 37.616 0.275 7.74 2.68 13.21
1/15/2021 9:30:00 AM 3.17 37.706 0.276 7.81 2.67 13.4
1/15/2021 9:45:00 AM 3.21 37.778 0.277 7.86 2.65 13.57
1/15/2021 10:00:00 AM 3.25 37.85 0.277 7.87 2.62 13.71
1/15/2021 10:15:00 AM 3.29 37.922 0.277 7.94 2.72 13.82
1/15/2021 10:30:00 AM 3.32 37.976 0.277 7.99 2.63 13.89
1/15/2021 10:45:00 AM 3.36 38.048 0.276 8.02 2.62 13.96
1/15/2021 11:00:00 AM 3.42 38.156 0.276 8.07 2.56 14.05
1/15/2021 11:15:00 AM 3.48 38.264 0.276 8.11 2.54 14.12
1/15/2021 11:30:00 AM 3.56 38.408 0.275 8.16 2.55 14.2
1/15/2021 11:45:00 AM 3.63 38.534 0.274 8.19 2.65 14.28
1/15/2021 12:00:00 PM 3.71 38.678 0.274 8.26 2.56 14.35
1/15/2021 12:15:00 PM 3.83 38.894 0.273 8.3 2.65 14.42
1/15/2021 12:30:00 PM 3.93 39.074 0.271 8.36 2.56 14.47
1/15/2021 12:45:00 PM 4.04 39.272 0.27 8.41 2.64 14.5
1/15/2021 1:00:00 PM 4.1 39.38 0.268 8.46 2.59 14.51
1/15/2021 1:15:00 PM 4.11 39.398 0.266 8.48 2.58 14.49
1/15/2021 1:30:00 PM 4.11 39.398 0.264 8.48 2.61 14.41
1/15/2021 1:45:00 PM 4.1 39.38 0.262 8.47 2.63 14.31
1/15/2021 2:00:00 PM 4.1 39.38 0.26 8.46 2.57 14.22
1/15/2021 2:15:00 PM 4.11 39.398 0.258 8.45 2.53 14.15
1/15/2021 2:30:00 PM 4.12 39.416 0.257 8.44 2.55 14.04
1/15/2021 2:45:00 PM 4.12 39.416 0.256 8.38 2.86 13.89
1/15/2021 3:00:00 PM 4.13 39.434 0.254 8.37 2.66 13.81
1/15/2021 3:15:00 PM 4.16 39.488 0.253 8.36 2.66 13.78
1/15/2021 3:30:00 PM 4.17 39.506 0.252 8.31 2.86 13.67
1/15/2021 3:45:00 PM 4.17 39.506 0.251 8.29 2.78 13.54
1/15/2021 4:00:00 PM 4.16 39.488 0.25 8.23 2.66 13.4
1/15/2021 4:15:00 PM 4.15 39.47 0.25 8.16 2.77 13.24
1/15/2021 4:30:00 PM 4.14 39.452 0.249 8.1 2.7 13.12
1/15/2021 4:45:00 PM 4.12 39.416 0.249 8.06 2.79 13.01
1/15/2021 5:00:00 PM 4.1 39.38 0.249 8 2.74 12.91
1/15/2021 5:15:00 PM 4.1 39.38 0.249 7.97 2.91 12.83
1/15/2021 5:30:00 PM 4.09 39.362 0.249 7.9 2.75 12.77
1/15/2021 5:45:00 PM 4.08 39.344 0.248 7.89 2.65 12.72
1/15/2021 6:00:00 PM 4.08 39.344 0.247 7.86 2.87 12.67
1/15/2021 6:15:00 PM 4.07 39.326 0.247 7.84 2.66 12.62
1/15/2021 6:30:00 PM 4.07 39.326 0.246 7.82 2.76 12.58
1/15/2021 6:45:00 PM 4.06 39.308 0.245 7.8 2.77 12.54
1/15/2021 7:00:00 PM 4.06 39.308 0.244 7.79 2.91 12.51
1/15/2021 7:15:00 PM 4.05 39.29 0.244 7.74 2.83 12.48
1/15/2021 7:30:00 PM 4.05 39.29 0.243 7.74 2.81 12.45
1/15/2021 7:45:00 PM 4.04 39.272 0.243 7.73 2.96 12.43
1/15/2021 8:00:00 PM 4.03 39.254 0.242 7.71 3.01 12.41
1/15/2021 8:15:00 PM 4.02 39.236 0.24 7.7 3.19 12.4
1/15/2021 8:30:00 PM 4 39.2 0.238 7.69 3.23 12.39
1/15/2021 8:45:00 PM 3.98 39.164 0.236 7.69 3.52 12.38
1/15/2021 9:00:00 PM 3.96 39.128 0.235 7.65 3.85 12.37
1/15/2021 9:15:00 PM 3.93 39.074 0.234 7.67 4.31 12.36
1/15/2021 9:30:00 PM 3.91 39.038 0.234 7.63 4.64 12.37
1/15/2021 9:45:00 PM 3.89 39.002 0.235 7.65 4.88 12.37
1/15/2021 10:00:00 PM 3.84 38.912 0.239 7.61 6.52 12.37
1/15/2021 10:15:00 PM 3.81 38.858 0.243 7.61 7.07 12.37
1/15/2021 10:30:00 PM 3.79 38.822 0.247 7.61 8.49 12.37
1/15/2021 10:45:00 PM 3.78 38.804 0.251 7.62 9.07 12.38
1/15/2021 11:00:00 PM 3.77 38.786 0.254 7.6 8.95 12.37
1/15/2021 11:15:00 PM 3.78 38.804 0.257 7.6 9.41 12.37
1/15/2021 11:30:00 PM 3.77 38.786 0.259 7.62 10.59 12.37
1/15/2021 11:45:00 PM 3.77 38.786 0.262 7.59 10.84 12.36
1/16/2021 12:00:00 AM 3.77 38.786 0.263 7.6 9.42 12.36
1/16/2021 12:15:00 AM 3.77 38.786 0.264 7.6 9.2 12.35
1/16/2021 12:30:00 AM 3.75 38.75 0.264 7.62 8.48 12.35
1/16/2021 12:45:00 AM 3.73 38.714 0.263 7.6 8.2 12.34
1/16/2021 1:00:00 AM 3.71 38.678 0.262 7.62 7.81 12.35
1/16/2021 1:15:00 AM 3.69 38.642 0.261 7.6 7.71 12.36
1/16/2021 1:30:00 AM 3.68 38.624 0.262 7.59 7.33 12.36
1/16/2021 1:45:00 AM 3.68 38.624 0.263 7.61 7.42 12.36
1/16/2021 2:00:00 AM 3.69 38.642 0.264 7.57 7.26 12.36
1/16/2021 2:15:00 AM 3.69 38.642 0.266 7.62 6.97 12.36
1/16/2021 2:30:00 AM 3.7 38.66 0.267 7.62 6.86 12.36
1/16/2021 2:45:00 AM 3.69 38.642 0.269 7.62 7.28 12.36
1/16/2021 3:00:00 AM 3.68 38.624 0.271 7.6 7.17 12.36
1/16/2021 3:15:00 AM 3.67 38.606 0.273 7.63 7.24 12.35
1/16/2021 3:30:00 AM 3.66 38.588 0.274 7.63 7.55 12.35
1/16/2021 3:45:00 AM 3.65 38.57 0.275 7.6 6.76 12.36
1/16/2021 4:00:00 AM 3.63 38.534 0.275 7.6 7.03 12.36
1/16/2021 4:15:00 AM 3.61 38.498 0.277 7.6 6.53 12.37
1/16/2021 4:30:00 AM 3.58 38.444 0.279 7.6 6.79 12.38
1/16/2021 4:45:00 AM 3.56 38.408 0.281 7.6 7.54 12.38
1/16/2021 5:00:00 AM 3.54 38.372 0.285 7.61 6.13 12.37
1/16/2021 5:15:00 AM 3.51 38.318 0.287 7.59 6.81 12.37
1/16/2021 5:30:00 AM 3.48 38.264 0.288 7.61 6.6 12.36
1/16/2021 5:45:00 AM 3.45 38.21 0.288 7.57 6.95 12.37
1/16/2021 6:00:00 AM 3.41 38.138 0.287 7.59 7.16 12.38
1/16/2021 6:15:00 AM 3.36 38.048 0.285 7.58 6.9 12.4
1/16/2021 6:30:00 AM 3.31 37.958 0.284 7.58 7.3 12.41
1/16/2021 6:45:00 AM 3.26 37.868 0.283 7.6 7.31 12.43
1/16/2021 7:00:00 AM 3.22 37.796 0.283 7.57 7.61 12.45
1/16/2021 7:15:00 AM 3.17 37.706 0.283 7.58 7.94 12.46
1/16/2021 7:30:00 AM 3.12 37.616 0.284 7.59 7.57 12.48
1/16/2021 7:45:00 AM 3.08 37.544 0.287 7.59 7.66 12.5
1/16/2021 8:00:00 AM 3.05 37.49 0.29 7.56 7.18 12.55
1/16/2021 8:15:00 AM 3.04 37.472 0.293 7.59 7.69 12.61
1/16/2021 8:30:00 AM 3.03 37.454 0.296 7.6 7.56 12.7
1/16/2021 8:45:00 AM 3.03 37.454 0.298 7.64 7.15 12.82
1/16/2021 9:00:00 AM 3.06 37.508 0.299 7.63 7.57 12.96
1/16/2021 9:15:00 AM 3.1 37.58 0.299 7.68 7.15 13.12
1/16/2021 9:30:00 AM 3.12 37.616 0.298 7.72 7.04 13.24
1/16/2021 9:45:00 AM 3.15 37.67 0.297 7.76 6.93 13.37
1/16/2021 10:00:00 AM 3.17 37.706 0.295 7.76 7.11 13.46
1/16/2021 10:15:00 AM 3.19 37.742 0.292 7.81 6.77 13.55
1/16/2021 10:30:00 AM 3.19 37.742 0.29 7.85 7.03 13.61
1/16/2021 10:45:00 AM 3.22 37.796 0.289 7.88 6.66 13.69
1/16/2021 11:00:00 AM 3.29 37.922 0.288 7.92 6.82 13.8
1/16/2021 11:15:00 AM 3.38 38.084 0.288 7.97 6.56 13.89
1/16/2021 11:30:00 AM 3.48 38.264 0.288 8 6.22 13.97
1/16/2021 11:45:00 AM 3.57 38.426 0.288 8.06 6.26 14.07
1/16/2021 12:00:00 PM 3.63 38.534 0.289 8.11 5.99 14.11
1/16/2021 12:15:00 PM 3.68 38.624 0.289 8.14 5.72 14.14
1/16/2021 12:30:00 PM 3.69 38.642 0.289 8.16 5.74 14.15
1/16/2021 12:45:00 PM 3.73 38.714 0.288 8.22 5.71 14.18
1/16/2021 1:00:00 PM 3.76 38.768 0.286 8.26 5.37 14.21
1/16/2021 1:15:00 PM 3.8 38.84 0.284 8.3 5.43 14.25
1/16/2021 1:30:00 PM 3.84 38.912 0.283 8.3 5.52 14.23
1/16/2021 1:45:00 PM 3.85 38.93 0.282 8.32 5.31 14.13
1/16/2021 2:00:00 PM 3.89 39.002 0.282 8.31 5.33 14.1
1/16/2021 2:15:00 PM 3.93 39.074 0.283 8.3 5.04 14.04
1/16/2021 2:30:00 PM 3.96 39.128 0.284 8.33 5.05 14.02
1/16/2021 2:45:00 PM 3.98 39.164 0.285 8.32 5.02 14
1/16/2021 3:00:00 PM 4.01 39.218 0.287 8.34 5.08 14
1/16/2021 3:15:00 PM 4.01 39.218 0.288 8.34 4.85 13.96
1/16/2021 3:30:00 PM 4.01 39.218 0.288 8.34 4.86 13.91
1/16/2021 3:45:00 PM 4 39.2 0.287 8.29 4.74 13.81
1/16/2021 4:00:00 PM 3.98 39.164 0.286 8.27 4.78 13.72
1/16/2021 4:15:00 PM 3.96 39.128 0.285 8.23 4.71 13.57
1/16/2021 4:30:00 PM 3.84 38.912 0.285 8.12 4.74 13.39
1/16/2021 4:45:00 PM 3.72 38.696 0.284 8.08 4.59 13.24
1/16/2021 5:00:00 PM 3.69 38.642 0.284 8 4.63 13.15
1/16/2021 5:15:00 PM 3.67 38.606 0.284 7.98 4.51 13.08
1/16/2021 5:30:00 PM 3.67 38.606 0.286 7.95 4.51 13
1/16/2021 5:45:00 PM 3.67 38.606 0.287 7.91 4.67 12.93
1/16/2021 6:00:00 PM 3.67 38.606 0.288 7.86 4.56 12.87
1/16/2021 6:15:00 PM 3.66 38.588 0.288 7.85 4.32 12.81
1/16/2021 6:30:00 PM 3.63 38.534 0.287 7.83 4.5 12.75
1/16/2021 6:45:00 PM 3.6 38.48 0.287 7.77 4.43 12.7
1/16/2021 7:00:00 PM 3.57 38.426 0.285 7.78 4.21 12.66
1/16/2021 7:15:00 PM 3.56 38.408 0.285 7.75 4.31 12.63
1/16/2021 7:30:00 PM 3.53 38.354 0.285 7.75 4.23 12.6
1/16/2021 7:45:00 PM 3.52 38.336 0.285 7.74 4.17 12.57
1/16/2021 8:00:00 PM 3.49 38.282 0.286 7.72 4.28 12.55
1/16/2021 8:15:00 PM 3.5 38.3 0.288 7.72 4.33 12.54
1/16/2021 8:30:00 PM 3.51 38.318 0.29 7.71 4.12 12.52
1/16/2021 8:45:00 PM 3.52 38.336 0.292 7.71 4.15 12.5
1/16/2021 9:00:00 PM 3.47 38.246 0.292 7.7 4.03 12.48
1/16/2021 9:15:00 PM 3.42 38.156 0.291 7.67 4.07 12.48
1/16/2021 9:30:00 PM 3.4 38.12 0.291 7.69 4.17 12.47
1/16/2021 9:45:00 PM 3.38 38.084 0.29 7.65 3.92 12.48
1/16/2021 10:00:00 PM 3.39 38.102 0.291 7.68 3.83 12.48
1/16/2021 10:15:00 PM 3.34 38.012 0.29 7.67 4.2 12.48
1/16/2021 10:30:00 PM 3.3 37.94 0.29 7.67 3.92 12.47
1/16/2021 10:45:00 PM 3.3 37.94 0.291 7.63 3.99 12.48
1/16/2021 11:00:00 PM 3.28 37.904 0.292 7.66 3.99 12.47
1/16/2021 11:15:00 PM 3.27 37.886 0.294 7.63 3.9 12.47
1/16/2021 11:30:00 PM 3.27 37.886 0.295 7.66 4.01 12.47
1/16/2021 11:45:00 PM 3.26 37.868 0.295 7.66 3.98 12.48
1/17/2021 12:00:00 AM 3.26 37.868 0.294 7.65 3.84 12.48
1/17/2021 12:15:00 AM 3.25 37.85 0.293 7.65 3.88 12.49
1/17/2021 12:30:00 AM 3.24 37.832 0.291 7.61 3.91 12.49
1/17/2021 12:45:00 AM 3.21 37.778 0.29 7.64 3.52 12.5
1/17/2021 1:00:00 AM 3.21 37.778 0.291 7.61 3.73 12.51
1/17/2021 1:15:00 AM 3.17 37.706 0.289 7.62 3.55 12.51
1/17/2021 1:30:00 AM 3.14 37.652 0.288 7.64 3.65 12.52
1/17/2021 1:45:00 AM 3.13 37.634 0.289 7.6 3.56 12.52
1/17/2021 2:00:00 AM 3.12 37.616 0.29 7.64 3.52 12.52
1/17/2021 2:15:00 AM 3.11 37.598 0.29 7.6 3.58 12.52
1/17/2021 2:30:00 AM 3.09 37.562 0.289 7.63 3.49 12.53
1/17/2021 2:45:00 AM 3.07 37.526 0.287 7.59 3.53 12.54
1/17/2021 3:00:00 AM 3.06 37.508 0.287 7.62 3.66 12.55
1/17/2021 3:15:00 AM 3.04 37.472 0.284 7.62 3.31 12.56
1/17/2021 3:30:00 AM 3.02 37.436 0.283 7.61 3.39 12.57
1/17/2021 3:45:00 AM 3 37.4 0.281 7.62 3.44 12.58
1/17/2021 4:00:00 AM 2.98 37.364 0.279 7.62 3.45 12.59
1/17/2021 4:15:00 AM 2.96 37.328 0.278 7.57 3.55 12.6
1/17/2021 4:30:00 AM 2.94 37.292 0.278 7.62 3.24 12.61
1/17/2021 4:45:00 AM 2.92 37.256 0.278 7.62 3.61 12.6
1/17/2021 5:00:00 AM 2.91 37.238 0.278 7.62 3.38 12.61
1/17/2021 5:15:00 AM 2.89 37.202 0.277 7.58 3.51 12.62
1/17/2021 5:30:00 AM 2.89 37.202 0.277 7.62 3.43 12.62
1/17/2021 5:45:00 AM 2.87 37.166 0.275 7.62 3.29 12.63
1/17/2021 6:00:00 AM 2.86 37.148 0.273 7.62 3.39 12.64
1/17/2021 6:15:00 AM 2.85 37.13 0.272 7.61 3.35 12.65
1/17/2021 6:30:00 AM 2.83 37.094 0.27 7.59 3.37 12.66
1/17/2021 6:45:00 AM 2.82 37.076 0.269 7.61 3.36 12.67
1/17/2021 7:00:00 AM 2.8 37.04 0.268 7.58 3.27 12.68
1/17/2021 7:15:00 AM 2.79 37.022 0.269 7.61 3.37 12.69
1/17/2021 7:30:00 AM 2.78 37.004 0.27 7.61 3.56 12.69
1/17/2021 7:45:00 AM 2.78 37.004 0.271 7.57 3.5 12.69
1/17/2021 8:00:00 AM 2.78 37.004 0.271 7.62 3.28 12.71
1/17/2021 8:15:00 AM 2.77 36.986 0.27 7.62 3.35 12.73
1/17/2021 8:30:00 AM 2.76 36.968 0.269 7.58 3.23 12.76
1/17/2021 8:45:00 AM 2.77 36.986 0.269 7.62 3.33 12.82
1/17/2021 9:00:00 AM 2.77 36.986 0.267 7.64 3.27 12.92
1/17/2021 9:15:00 AM 2.79 37.022 0.266 7.66 3.27 13.05
1/17/2021 9:30:00 AM 2.8 37.04 0.265 7.7 3.25 13.18
1/17/2021 9:45:00 AM 2.82 37.076 0.264 7.74 3.19 13.32
1/17/2021 10:00:00 AM 2.84 37.112 0.264 7.77 3.25 13.43
1/17/2021 10:15:00 AM 2.86 37.148 0.265 7.79 3.15 13.49
1/17/2021 10:30:00 AM 2.89 37.202 0.265 7.82 3.13 13.6
1/17/2021 10:45:00 AM 2.94 37.292 0.266 7.86 3.15 13.73
1/17/2021 11:00:00 AM 2.97 37.346 0.266 7.89 3.05 13.82
1/17/2021 11:15:00 AM 3 37.4 0.265 7.93 3.1 13.91
1/17/2021 11:30:00 AM 3.06 37.508 0.264 7.99 3.12 14.04
1/17/2021 11:45:00 AM 3.13 37.634 0.263 8.05 3.14 14.14
1/17/2021 12:00:00 PM 3.18 37.724 0.262 8.08 3.05 14.23
1/17/2021 12:15:00 PM 3.2 37.76 0.261 8.13 2.99 14.28
1/17/2021 12:30:00 PM 3.23 37.814 0.26 8.19 3.12 14.3
1/17/2021 12:45:00 PM 3.23 37.814 0.26 8.18 3.09 14.27
1/17/2021 1:00:00 PM 3.24 37.832 0.261 8.22 2.98 14.26
1/17/2021 1:15:00 PM 3.26 37.868 0.261 8.25 3.1 14.26
1/17/2021 1:30:00 PM 3.31 37.958 0.261 8.24 2.94 14.31
1/17/2021 1:45:00 PM 3.38 38.084 0.261 8.31 3.08 14.39
1/17/2021 2:00:00 PM 3.48 38.264 0.26 8.38 3.04 14.46
1/17/2021 2:15:00 PM 3.56 38.408 0.259 8.4 3.02 14.52
1/17/2021 2:30:00 PM 3.58 38.444 0.258 8.45 3.12 14.49
1/17/2021 2:45:00 PM 3.6 38.48 0.258 8.47 2.99 14.43
1/17/2021 3:00:00 PM 3.63 38.534 0.257 8.46 3.19 14.41
1/17/2021 3:15:00 PM 3.63 38.534 0.256 8.48 3.14 14.36
1/17/2021 3:30:00 PM 3.65 38.57 0.256 8.46 2.95 14.32
1/17/2021 3:45:00 PM 3.63 38.534 0.256 8.46 3.06 14.2
1/17/2021 4:00:00 PM 3.62 38.516 0.257 8.37 3.19 14.02
1/17/2021 4:15:00 PM 3.61 38.498 0.257 8.32 3.17 13.85
1/17/2021 4:30:00 PM 3.61 38.498 0.257 8.26 3.08 13.74
1/17/2021 4:45:00 PM 3.61 38.498 0.258 8.22 3.08 13.64
1/17/2021 5:00:00 PM 3.61 38.498 0.257 8.17 3.04 13.53
1/17/2021 5:15:00 PM 3.6 38.48 0.256 8.12 3.12 13.41
1/17/2021 5:30:00 PM 3.58 38.444 0.256 8.02 3.26 13.31
1/17/2021 5:45:00 PM 3.57 38.426 0.255 8.02 3.25 13.22
1/17/2021 6:00:00 PM 3.55 38.39 0.256 7.96 3.24 13.14
1/17/2021 6:15:00 PM 3.54 38.372 0.256 7.92 3.22 13.07
1/17/2021 6:30:00 PM 3.52 38.336 0.256 7.89 3.2 13.01
1/17/2021 6:45:00 PM 3.52 38.336 0.257 7.87 3.37 12.96
1/17/2021 7:00:00 PM 3.5 38.3 0.257 7.86 3.34 12.91
1/17/2021 7:15:00 PM 3.49 38.282 0.258 7.8 3.34 12.87
1/17/2021 7:30:00 PM 3.47 38.246 0.258 7.82 3.24 12.82
1/17/2021 7:45:00 PM 3.46 38.228 0.258 7.77 3.71 12.78
1/17/2021 8:00:00 PM 3.45 38.21 0.258 7.76 3.29 12.75
1/17/2021 8:15:00 PM 3.44 38.192 0.257 7.76 3.27 12.72
1/17/2021 8:30:00 PM 3.43 38.174 0.258 7.71 3.61 12.7
1/17/2021 8:45:00 PM 3.42 38.156 0.258 7.71 3.17 12.68
1/17/2021 9:00:00 PM 3.41 38.138 0.26 7.73 3.37 12.66
1/17/2021 9:15:00 PM 3.41 38.138 0.261 7.72 3.23 12.64
1/17/2021 9:30:00 PM 3.41 38.138 0.262 7.68 3.25 12.63
1/17/2021 9:45:00 PM 3.4 38.12 0.263 7.71 3.26 12.62
1/17/2021 10:00:00 PM 3.4 38.12 0.263 7.7 3.18 12.6
1/17/2021 10:15:00 PM 3.38 38.084 0.264 7.68 3.26 12.6
1/17/2021 10:30:00 PM 3.38 38.084 0.264 7.69 3.24 12.59
1/17/2021 10:45:00 PM 3.37 38.066 0.263 7.68 3.18 12.59
1/17/2021 11:00:00 PM 3.36 38.048 0.264 7.66 3.23 12.58
1/17/2021 11:15:00 PM 3.34 38.012 0.265 7.67 3.13 12.58
1/17/2021 11:30:00 PM 3.32 37.976 0.266 7.68 3.22 12.58
1/17/2021 11:45:00 PM 3.32 37.976 0.268 7.63 3.32 12.58
1/18/2021 12:00:00 AM 3.32 37.976 0.269 7.65 3.71 12.57
1/18/2021 12:15:00 AM 3.32 37.976 0.271 7.66 3.71 12.56
1/18/2021 12:30:00 AM 3.31 37.958 0.271 7.65 3.49 12.56
1/18/2021 12:45:00 AM 3.31 37.958 0.272 7.65 3.51 12.55
1/18/2021 1:00:00 AM 3.3 37.94 0.272 7.64 3.72 12.55
1/18/2021 1:15:00 AM 3.3 37.94 0.272 7.65 3.59 12.55
1/18/2021 1:30:00 AM 3.29 37.922 0.271 7.65 3.56 12.55
1/18/2021 1:45:00 AM 3.28 37.904 0.271 7.65 3.4 12.55
1/18/2021 2:00:00 AM 3.27 37.886 0.271 7.63 4.03 12.55
1/18/2021 2:15:00 AM 3.27 37.886 0.272 7.62 4.03 12.55
1/18/2021 2:30:00 AM 3.26 37.868 0.274 7.65 3.52 12.55
1/18/2021 2:45:00 AM 3.26 37.868 0.274 7.62 3.5 12.55
1/18/2021 3:00:00 AM 3.23 37.814 0.275 7.65 3.51 12.55
1/18/2021 3:15:00 AM 3.22 37.796 0.275 7.62 3.39 12.55
1/18/2021 3:30:00 AM 3.21 37.778 0.275 7.62 3.56 12.55
1/18/2021 3:45:00 AM 3.2 37.76 0.275 7.63 3.34 12.55
1/18/2021 4:00:00 AM 3.19 37.742 0.275 7.64 3.21 12.55
1/18/2021 4:15:00 AM 3.19 37.742 0.273 7.62 3.21 12.56
1/18/2021 4:30:00 AM 3.18 37.724 0.273 7.64 3.29 12.56
1/18/2021 4:45:00 AM 3.18 37.724 0.273 7.64 3.14 12.56
1/18/2021 5:00:00 AM 3.18 37.724 0.274 7.61 3.12 12.56
1/18/2021 5:15:00 AM 3.17 37.706 0.274 7.63 3.12 12.57
1/18/2021 5:30:00 AM 3.15 37.67 0.274 7.64 2.91 12.57
1/18/2021 5:45:00 AM 3.15 37.67 0.275 7.6 3.1 12.57
1/18/2021 6:00:00 AM 3.14 37.652 0.274 7.61 2.94 12.57
1/18/2021 6:15:00 AM 3.12 37.616 0.274 7.64 3.09 12.57
1/18/2021 6:30:00 AM 3.12 37.616 0.273 7.59 3.1 12.58
1/18/2021 6:45:00 AM 3.1 37.58 0.272 7.62 3 12.59
1/18/2021 7:00:00 AM 3.06 37.508 0.271 7.63 2.88 12.6
1/18/2021 7:15:00 AM 3.05 37.49 0.271 7.6 3.03 12.6
1/18/2021 7:30:00 AM 3.05 37.49 0.271 7.62 2.95 12.61
1/18/2021 7:45:00 AM 3 37.4 0.271 7.64 3.12 12.62
1/18/2021 8:00:00 AM 2.89 37.202 0.271 7.64 3.03 12.63
1/18/2021 8:15:00 AM 2.86 37.148 0.271 7.6 2.87 12.69
1/18/2021 8:30:00 AM 2.74 36.932 0.271 7.64 2.95 12.73
1/18/2021 8:45:00 AM 2.71 36.878 0.271 7.65 2.96 12.82
1/18/2021 9:00:00 AM 2.79 37.022 0.27 7.69 2.91 12.97
1/18/2021 9:15:00 AM 2.82 37.076 0.269 7.73 2.89 13.14
1/18/2021 9:30:00 AM 2.87 37.166 0.267 7.75 2.96 13.36
1/18/2021 9:45:00 AM 2.91 37.238 0.266 7.79 2.9 13.5
1/18/2021 10:00:00 AM 2.95 37.31 0.265 7.85 2.83 13.65
1/18/2021 10:15:00 AM 3 37.4 0.265 7.87 2.79 13.81
1/18/2021 10:30:00 AM 3.02 37.436 0.264 7.95 2.83 13.88
1/18/2021 10:45:00 AM 3.05 37.49 0.265 7.96 2.83 13.96
1/18/2021 11:00:00 AM 3.11 37.598 0.265 8.03 2.81 14.08
1/18/2021 11:15:00 AM 3.15 37.67 0.265 8.09 2.89 14.17
1/18/2021 11:30:00 AM 3.22 37.796 0.264 8.15 2.82 14.27
1/18/2021 11:45:00 AM 3.25 37.85 0.263 8.18 2.88 14.37
1/18/2021 12:00:00 PM 3.28 37.904 0.263 8.25 2.8 14.44
1/18/2021 12:15:00 PM 3.33 37.994 0.262 8.29 2.83 14.51
1/18/2021 12:30:00 PM 3.36 38.048 0.261 8.36 2.82 14.57
1/18/2021 12:45:00 PM 3.38 38.084 0.261 8.41 2.82 14.6
1/18/2021 1:00:00 PM 3.38 38.084 0.26 8.44 2.86 14.6
1/18/2021 1:15:00 PM 3.38 38.084 0.261 8.45 2.91 14.6
1/18/2021 1:30:00 PM 3.4 38.12 0.26 8.48 2.95 14.62
1/18/2021 1:45:00 PM 3.44 38.192 0.261 8.52 2.82 14.67
1/18/2021 2:00:00 PM 3.49 38.282 0.261 8.56 2.92 14.71
1/18/2021 2:15:00 PM 3.54 38.372 0.26 8.59 2.89 14.73
1/18/2021 2:30:00 PM 3.56 38.408 0.26 8.63 2.86 14.74
1/18/2021 2:45:00 PM 3.58 38.444 0.259 8.64 2.93 14.73
1/18/2021 3:00:00 PM 3.59 38.462 0.258 8.68 3.03 14.73
1/18/2021 3:15:00 PM 3.6 38.48 0.257 8.66 2.95 14.72
1/18/2021 3:30:00 PM 3.6 38.48 0.256 8.71 2.84 14.7
1/18/2021 3:45:00 PM 3.57 38.426 0.256 8.7 2.88 14.6
1/18/2021 4:00:00 PM 3.54 38.372 0.256 8.66 2.86 14.5
1/18/2021 4:15:00 PM 3.52 38.336 0.256 8.63 2.94 14.35
1/18/2021 4:30:00 PM 3.49 38.282 0.256 8.58 2.99 14.17
1/18/2021 4:45:00 PM 3.47 38.246 0.257 8.5 3.02 13.99
1/18/2021 5:00:00 PM 3.44 38.192 0.257 8.43 2.9 13.82
1/18/2021 5:15:00 PM 3.42 38.156 0.257 8.32 2.94 13.68
1/18/2021 5:30:00 PM 3.39 38.102 0.257 8.27 2.88 13.57
1/18/2021 5:45:00 PM 3.37 38.066 0.257 8.22 2.9 13.47
1/18/2021 6:00:00 PM 3.36 38.048 0.256 8.17 2.98 13.39
1/18/2021 6:15:00 PM 3.35 38.03 0.256 8.1 2.85 13.33
1/18/2021 6:30:00 PM 3.34 38.012 0.256 8.06 2.91 13.28
1/18/2021 6:45:00 PM 3.32 37.976 0.255 8.05 3.08 13.22
1/18/2021 7:00:00 PM 3.3 37.94 0.255 7.99 2.88 13.17
1/18/2021 7:15:00 PM 3.29 37.922 0.255 7.97 2.93 13.12
1/18/2021 7:30:00 PM 3.27 37.886 0.255 7.93 2.95 13.07
1/18/2021 7:45:00 PM 3.26 37.868 0.255 7.9 3.17 13.03
1/18/2021 8:00:00 PM 3.24 37.832 0.254 7.82 2.95 12.99
1/18/2021 8:15:00 PM 3.22 37.796 0.254 7.85 2.9 12.96
1/18/2021 8:30:00 PM 3.19 37.742 0.253 7.82 2.94 12.92
1/18/2021 8:45:00 PM 3.18 37.724 0.253 7.8 2.78 12.9
1/18/2021 9:00:00 PM 3.16 37.688 0.253 7.78 2.92 12.87
1/18/2021 9:15:00 PM 3.14 37.652 0.253 7.76 2.91 12.85
1/18/2021 9:30:00 PM 3.12 37.616 0.254 7.71 3 12.84
1/18/2021 9:45:00 PM 3.1 37.58 0.255 7.73 2.87 12.83
1/18/2021 10:00:00 PM 3.08 37.544 0.256 7.72 2.9 12.82
1/18/2021 10:15:00 PM 3.07 37.526 0.256 7.68 2.84 12.82
1/18/2021 10:30:00 PM 3.06 37.508 0.256 7.71 2.79 12.81
1/18/2021 10:45:00 PM 3.06 37.508 0.257 7.68 2.89 12.8
1/18/2021 11:00:00 PM 3.04 37.472 0.256 7.68 2.82 12.8
1/18/2021 11:15:00 PM 3.03 37.454 0.256 7.67 2.83 12.8
1/18/2021 11:30:00 PM 3.01 37.418 0.256 7.69 2.92 12.8
1/18/2021 11:45:00 PM 2.99 37.382 0.256 7.65 2.97 12.8
1/19/2021 12:00:00 AM 2.98 37.364 0.256 7.69 2.93 12.8
1/19/2021 12:15:00 AM 2.95 37.31 0.257 7.65 2.78 12.81
1/19/2021 12:30:00 AM 2.93 37.274 0.258 7.68 2.86 12.82
1/19/2021 12:45:00 AM 2.9 37.22 0.259 7.67 2.82 12.81
1/19/2021 1:00:00 AM 2.87 37.166 0.259 7.65 2.75 12.82
1/19/2021 1:15:00 AM 2.85 37.13 0.259 7.64 2.8 12.83
1/19/2021 1:30:00 AM 2.84 37.112 0.259 7.65 2.74 12.83
1/19/2021 1:45:00 AM 2.82 37.076 0.258 7.67 2.81 12.84
1/19/2021 2:00:00 AM 2.8 37.04 0.258 7.64 2.74 12.84
1/19/2021 2:15:00 AM 2.8 37.04 0.257 7.66 2.73 12.85
1/19/2021 2:30:00 AM 2.78 37.004 0.257 7.66 2.7 12.85
1/19/2021 2:45:00 AM 2.77 36.986 0.258 7.63 2.78 12.86
1/19/2021 3:00:00 AM 2.75 36.95 0.258 7.64 2.79 12.87
1/19/2021 3:15:00 AM 2.73 36.914 0.259 7.64 2.68 12.87
1/19/2021 3:30:00 AM 2.72 36.896 0.259 7.66 2.72 12.88
1/19/2021 3:45:00 AM 2.71 36.878 0.26 7.63 2.81 12.88
1/19/2021 4:00:00 AM 2.69 36.842 0.26 7.65 2.83 12.9
1/19/2021 4:15:00 AM 2.67 36.806 0.26 7.61 2.76 12.9
1/19/2021 4:30:00 AM 2.65 36.77 0.259 7.62 2.74 12.9
1/19/2021 4:45:00 AM 2.64 36.752 0.259 7.65 2.87 12.91
1/19/2021 5:00:00 AM 2.63 36.734 0.259 7.63 2.78 12.92
1/19/2021 5:15:00 AM 2.61 36.698 0.259 7.64 2.98 12.93
1/19/2021 5:30:00 AM 2.6 36.68 0.26 7.61 2.91 12.93
1/19/2021 5:45:00 AM 2.58 36.644 0.261 7.64 2.74 12.93
1/19/2021 6:00:00 AM 2.57 36.626 0.262 7.6 2.89 12.93
1/19/2021 6:15:00 AM 2.56 36.608 0.264 7.62 2.89 12.93
1/19/2021 6:30:00 AM 2.55 36.59 0.266 7.64 2.82 12.93
1/19/2021 6:45:00 AM 2.55 36.59 0.266 7.62 2.89 12.94
1/19/2021 7:00:00 AM 2.55 36.59 0.266 7.62 2.82 12.95
1/19/2021 7:15:00 AM 2.54 36.572 0.266 7.64 2.81 12.95
1/19/2021 7:30:00 AM 2.53 36.554 0.266 7.61 2.8 12.95
1/19/2021 7:45:00 AM 2.53 36.554 0.267 7.62 2.76 12.96
1/19/2021 8:00:00 AM 2.52 36.536 0.267 7.65 2.85 12.98
1/19/2021 8:15:00 AM 2.51 36.518 0.267 7.65 2.7 13
1/19/2021 8:30:00 AM 2.5 36.5 0.267 7.62 2.78 13.04
1/19/2021 8:45:00 AM 2.51 36.518 0.267 7.65 2.76 13.14
1/19/2021 9:00:00 AM 2.52 36.536 0.267 7.7 2.74 13.29
1/19/2021 9:15:00 AM 2.54 36.572 0.267 7.71 2.78 13.47
1/19/2021 9:30:00 AM 2.55 36.59 0.267 7.78 2.68 13.67
1/19/2021 9:45:00 AM 2.57 36.626 0.267 7.83 2.64 13.84
1/19/2021 10:00:00 AM 2.58 36.644 0.267 7.88 2.65 13.99
1/19/2021 10:15:00 AM 2.58 36.644 0.268 7.92 2.64 14.1
1/19/2021 10:30:00 AM 2.59 36.662 0.27 7.96 2.77 14.19
1/19/2021 10:45:00 AM 2.61 36.698 0.272 7.99 2.65 14.31
1/19/2021 11:00:00 AM 2.66 36.788 0.276 8.03 2.72 14.41
1/19/2021 11:15:00 AM 2.69 36.842 0.278 8.08 2.67 14.49
1/19/2021 11:30:00 AM 2.73 36.914 0.281 8.14 2.6 14.57
1/19/2021 11:45:00 AM 2.79 37.022 0.283 8.2 2.63 14.67
1/19/2021 12:00:00 PM 2.88 37.184 0.286 8.23 2.67 14.76
1/19/2021 12:15:00 PM 3.02 37.436 0.287 8.32 2.61 14.85
1/19/2021 12:30:00 PM 3.16 37.688 0.288 8.35 2.62 14.91
1/19/2021 12:45:00 PM 3.25 37.85 0.289 8.43 2.55 14.96
1/19/2021 1:00:00 PM 3.33 37.994 0.29 8.47 2.61 14.98
1/19/2021 1:15:00 PM 3.4 38.12 0.29 8.5 2.6 14.98
1/19/2021 1:30:00 PM 3.46 38.228 0.291 8.55 2.74 14.98
1/19/2021 1:45:00 PM 3.52 38.336 0.29 8.58 2.64 14.98
1/19/2021 2:00:00 PM 3.57 38.426 0.291 8.58 2.61 14.96
1/19/2021 2:15:00 PM 3.61 38.498 0.29 8.63 2.64 14.94
1/19/2021 2:30:00 PM 3.65 38.57 0.29 8.65 2.55 14.93
1/19/2021 2:45:00 PM 3.67 38.606 0.29 8.65 2.63 14.91
1/19/2021 3:00:00 PM 3.68 38.624 0.29 8.68 2.66 14.88
1/19/2021 3:15:00 PM 3.69 38.642 0.288 8.69 2.63 14.86
1/19/2021 3:30:00 PM 3.7 38.66 0.288 8.7 2.65 14.81
1/19/2021 3:45:00 PM 3.68 38.624 0.287 8.71 2.72 14.74
1/19/2021 4:00:00 PM 3.66 38.588 0.286 8.69 2.61 14.67
1/19/2021 4:15:00 PM 3.62 38.516 0.285 8.69 2.71 14.58
1/19/2021 4:30:00 PM 3.57 38.426 0.285 8.63 2.64 14.48
1/19/2021 4:45:00 PM 3.52 38.336 0.284 8.63 2.67 14.37
1/19/2021 5:00:00 PM 3.47 38.246 0.284 8.57 2.65 14.22
1/19/2021 5:15:00 PM 3.41 38.138 0.283 8.52 2.66 14.06
1/19/2021 5:30:00 PM 3.35 38.03 0.282 8.42 2.78 13.91
1/19/2021 5:45:00 PM 3.3 37.94 0.281 8.37 2.73 13.78
1/19/2021 6:00:00 PM 3.25 37.85 0.28 8.28 2.67 13.66
1/19/2021 6:15:00 PM 3.19 37.742 0.28 8.24 2.85 13.58
1/19/2021 6:30:00 PM 3.14 37.652 0.279 8.15 2.98 13.51
1/19/2021 6:45:00 PM 3.08 37.544 0.277 8.12 2.68 13.46
1/19/2021 7:00:00 PM 3.02 37.436 0.276 8.07 2.72 13.41
1/19/2021 7:15:00 PM 2.97 37.346 0.275 8.05 2.65 13.37
1/19/2021 7:30:00 PM 2.92 37.256 0.274 7.99 2.71 13.32
1/19/2021 7:45:00 PM 2.87 37.166 0.272 7.97 2.77 13.28
1/19/2021 8:00:00 PM 2.83 37.094 0.271 7.92 2.77 13.25
1/19/2021 8:15:00 PM 2.79 37.022 0.269 7.89 2.72 13.21
1/19/2021 8:30:00 PM 2.76 36.968 0.267 7.87 2.7 13.18
1/19/2021 8:45:00 PM 2.74 36.932 0.266 7.85 2.74 13.16
1/19/2021 9:00:00 PM 2.71 36.878 0.265 7.82 2.79 13.13
1/19/2021 9:15:00 PM 2.7 36.86 0.264 7.77 2.83 13.1
1/19/2021 9:30:00 PM 2.69 36.842 0.264 7.79 2.69 13.09
1/19/2021 9:45:00 PM 2.68 36.824 0.264 7.76 2.78 13.07
1/19/2021 10:00:00 PM 2.68 36.824 0.265 7.76 2.74 13.04
1/19/2021 10:15:00 PM 2.68 36.824 0.265 7.74 2.73 13.03
1/19/2021 10:30:00 PM 2.68 36.824 0.266 7.71 2.84 13.01
1/19/2021 10:45:00 PM 2.68 36.824 0.266 7.74 2.76 12.99
1/19/2021 11:00:00 PM 2.68 36.824 0.266 7.68 2.81 12.98
1/19/2021 11:15:00 PM 2.69 36.842 0.267 7.7 2.78 12.97
1/19/2021 11:30:00 PM 2.69 36.842 0.267 7.7 2.69 12.95
1/19/2021 11:45:00 PM 2.7 36.86 0.268 7.71 2.69 12.94
1/20/2021 12:00:00 AM 2.7 36.86 0.268 7.71 2.71 12.93
1/20/2021 12:15:00 AM 2.7 36.86 0.268 7.67 2.77 12.93
1/20/2021 12:30:00 AM 2.7 36.86 0.269 7.69 2.69 12.92
1/20/2021 12:45:00 AM 2.7 36.86 0.27 7.7 2.77 12.91
1/20/2021 1:00:00 AM 2.7 36.86 0.271 7.7 2.84 12.9
1/20/2021 1:15:00 AM 2.69 36.842 0.272 7.66 2.9 12.89
1/20/2021 1:30:00 AM 2.7 36.86 0.273 7.67 2.87 12.88
1/20/2021 1:45:00 AM 2.69 36.842 0.273 7.68 2.8 12.87
1/20/2021 2:00:00 AM 2.69 36.842 0.273 7.64 3.08 12.86
1/20/2021 2:15:00 AM 2.69 36.842 0.273 7.68 2.77 12.86
1/20/2021 2:30:00 AM 2.7 36.86 0.273 7.65 2.77 12.85
1/20/2021 2:45:00 AM 2.69 36.842 0.273 7.65 2.75 12.85
1/20/2021 3:00:00 AM 2.68 36.824 0.273 7.66 2.83 12.85
1/20/2021 3:15:00 AM 2.63 36.734 0.272 7.66 2.81 12.85
1/20/2021 3:30:00 AM 2.61 36.698 0.273 7.65 2.73 12.84
1/20/2021 3:45:00 AM 2.58 36.644 0.273 7.66 2.73 12.84
1/20/2021 4:00:00 AM 2.53 36.554 0.274 7.65 2.78 12.84
1/20/2021 4:15:00 AM 2.47 36.446 0.273 7.66 2.89 12.85
1/20/2021 4:30:00 AM 2.44 36.392 0.273 7.65 2.79 12.86
1/20/2021 4:45:00 AM 2.41 36.338 0.272 7.66 2.82 12.87
1/20/2021 5:00:00 AM 2.38 36.284 0.272 7.66 2.76 12.88
1/20/2021 5:15:00 AM 2.37 36.266 0.272 7.63 2.79 12.89
1/20/2021 5:30:00 AM 2.37 36.266 0.272 7.65 2.74 12.9
1/20/2021 5:45:00 AM 2.34 36.212 0.272 7.65 2.96 12.91
1/20/2021 6:00:00 AM 2.33 36.194 0.271 7.66 3.08 12.92
1/20/2021 6:15:00 AM 2.31 36.158 0.272 7.63 2.91 12.92
1/20/2021 6:30:00 AM 2.28 36.104 0.273 7.64 2.83 12.94
1/20/2021 6:45:00 AM 2.26 36.068 0.273 7.66 2.71 12.95
1/20/2021 7:00:00 AM 2.23 36.014 0.273 7.66 2.72 12.96
1/20/2021 7:15:00 AM 2.21 35.978 0.273 7.66 2.65 12.97
1/20/2021 7:30:00 AM 2.17 35.906 0.273 7.66 2.81 12.99
1/20/2021 7:45:00 AM 2.12 35.816 0.272 7.66 3.12 13.03
1/20/2021 8:00:00 AM 2.08 35.744 0.272 7.64 2.66 13.11
1/20/2021 8:15:00 AM 2.06 35.708 0.272 7.64 2.67 13.22
1/20/2021 8:30:00 AM 2.06 35.708 0.272 7.71 2.65 13.35
1/20/2021 8:45:00 AM 2.07 35.726 0.272 7.73 2.61 13.5
1/20/2021 9:00:00 AM 2.08 35.744 0.272 7.78 2.62 13.67
1/20/2021 9:15:00 AM 2.06 35.708 0.273 7.81 2.55 13.81
1/20/2021 9:30:00 AM 2.06 35.708 0.272 7.85 2.68 13.98
1/20/2021 9:45:00 AM 2.06 35.708 0.272 7.85 2.65 14.12
1/20/2021 10:00:00 AM 2.09 35.762 0.272 7.93 2.53 14.27
1/20/2021 10:15:00 AM 2.11 35.798 0.271 7.99 2.61 14.4
1/20/2021 10:30:00 AM 2.12 35.816 0.271 7.99 2.57 14.5
1/20/2021 10:45:00 AM 2.21 35.978 0.27 8.07 2.59 14.63
1/20/2021 11:00:00 AM 2.15 35.87 0.27 8.12 2.57 14.69
1/20/2021 11:15:00 AM 2.11 35.798 0.27 8.16 2.55 14.73
1/20/2021 11:30:00 AM 2.07 35.726 0.27 8.15 2.56 14.78
1/20/2021 11:45:00 AM 2.08 35.744 0.27 8.23 2.73 14.86
1/20/2021 12:00:00 PM 2.12 35.816 0.27 8.24 2.7 14.95
1/20/2021 12:15:00 PM 2.23 36.014 0.269 8.32 2.56 15.05
1/20/2021 12:30:00 PM 2.32 36.176 0.268 8.38 2.55 15.16
1/20/2021 12:45:00 PM 2.45 36.41 0.268 8.45 2.48 15.24
1/20/2021 1:00:00 PM 2.52 36.536 0.267 8.51 2.5 15.3
1/20/2021 1:15:00 PM 2.61 36.698 0.265 8.55 2.59 15.33
1/20/2021 1:30:00 PM 2.66 36.788 0.264 8.58 2.51 15.36
1/20/2021 1:45:00 PM 2.62 36.716 0.264 8.64 2.62 15.37
1/20/2021 2:00:00 PM 2.58 36.644 0.264 8.64 2.67 15.37
1/20/2021 2:15:00 PM 2.52 36.536 0.263 8.66 2.53 15.36
1/20/2021 2:30:00 PM 2.47 36.446 0.263 8.7 2.63 15.33
1/20/2021 2:45:00 PM 2.46 36.428 0.263 8.69 2.54 15.34
1/20/2021 3:00:00 PM 2.43 36.374 0.262 8.73 2.59 15.34
1/20/2021 3:15:00 PM 2.41 36.338 0.261 8.75 2.64 15.34
1/20/2021 3:30:00 PM 2.41 36.338 0.261 8.72 2.59 15.33
1/20/2021 3:45:00 PM 2.41 36.338 0.26 8.78 2.65 15.34
1/20/2021 4:00:00 PM 2.41 36.338 0.26 8.76 2.56 15.33
1/20/2021 4:15:00 PM 2.38 36.284 0.26 8.79 2.65 15.31
1/20/2021 4:30:00 PM 2.34 36.212 0.26 8.79 2.53 15.23
1/20/2021 4:45:00 PM 2.31 36.158 0.26 8.78 2.55 15.11
1/20/2021 5:00:00 PM 2.27 36.086 0.26 8.73 2.59 14.97
1/20/2021 5:15:00 PM 2.2 35.96 0.26 8.68 2.52 14.79
1/20/2021 5:30:00 PM 2.13 35.834 0.261 8.62 2.65 14.59
1/20/2021 5:45:00 PM 2.07 35.726 0.261 8.53 2.69 14.41
1/20/2021 6:00:00 PM 2.02 35.636 0.261 8.44 2.64 14.27
1/20/2021 6:15:00 PM 1.97 35.546 0.26 8.36 2.64 14.16
1/20/2021 6:30:00 PM 1.92 35.456 0.26 8.3 2.67 14.08
1/20/2021 6:45:00 PM 1.86 35.348 0.261 8.26 2.5 14.01
1/20/2021 7:00:00 PM 1.8 35.24 0.261 8.2 2.64 13.95
1/20/2021 7:15:00 PM 1.76 35.168 0.26 8.11 2.81 13.91
1/20/2021 7:30:00 PM 1.72 35.096 0.26 8.08 2.64 13.86
1/20/2021 7:45:00 PM 1.65 34.97 0.261 8.03 2.77 13.82
1/20/2021 8:00:00 PM 1.59 34.862 0.261 8 2.67 13.77
1/20/2021 8:15:00 PM 1.53 34.754 0.261 7.93 2.66 13.74
1/20/2021 8:30:00 PM 1.47 34.646 0.262 7.92 2.56 13.71
1/20/2021 8:45:00 PM 1.4 34.52 0.261 7.88 2.74 13.69
1/20/2021 9:00:00 PM 1.35 34.43 0.262 7.87 2.63 13.68
1/20/2021 9:15:00 PM 1.28 34.304 0.263 7.83 2.63 13.66
1/20/2021 9:30:00 PM 1.23 34.214 0.263 7.82 2.68 13.65
1/20/2021 9:45:00 PM 1.18 34.124 0.265 7.81 2.68 13.64
1/20/2021 10:00:00 PM 1.14 34.052 0.266 7.79 2.62 13.64
1/20/2021 10:15:00 PM 1.11 33.998 0.267 7.76 2.63 13.63
1/20/2021 10:30:00 PM 1.1 33.98 0.269 7.75 2.55 13.62
1/20/2021 10:45:00 PM 1.08 33.944 0.27 7.76 2.67 13.62
1/20/2021 11:00:00 PM 1.04 33.872 0.271 7.75 2.57 13.61
1/20/2021 11:15:00 PM 0.99 33.782 0.272 7.74 2.61 13.61
1/20/2021 11:30:00 PM 0.94 33.692 0.273 7.7 2.68 13.62
1/20/2021 11:45:00 PM 0.9 33.62 0.274 7.7 2.63 13.62
1/21/2021 12:00:00 AM 0.87 33.566 0.275 7.72 2.59 13.63
1/21/2021 12:15:00 AM 0.83 33.494 0.276 7.7 2.62 13.64
1/21/2021 12:30:00 AM 0.79 33.422 0.278 7.71 2.68 13.64
1/21/2021 12:45:00 AM 0.74 33.332 0.279 7.71 2.6 13.65
1/21/2021 1:00:00 AM 0.71 33.278 0.281 7.66 2.59 13.65
1/21/2021 1:15:00 AM 0.67 33.206 0.282 7.69 2.5 13.65
1/21/2021 1:30:00 AM 0.64 33.152 0.284 7.68 2.65 13.66
1/21/2021 1:45:00 AM 0.6 33.08 0.285 7.7 2.55 13.66
1/21/2021 2:00:00 AM 0.57 33.026 0.286 7.68 2.57 13.67
1/21/2021 2:15:00 AM 0.53 32.954 0.287 7.68 2.65 13.67
1/21/2021 2:30:00 AM 0.5 32.9 0.287 7.7 2.63 13.68
1/21/2021 2:45:00 AM 0.46 32.828 0.287 7.67 2.63 13.69
1/21/2021 3:00:00 AM 0.43 32.774 0.288 7.67 2.75 13.7
1/21/2021 3:15:00 AM 0.39 32.702 0.288 7.68 2.76 13.71
1/21/2021 3:30:00 AM 0.35 32.63 0.289 7.68 2.7 13.72
1/21/2021 3:45:00 AM 0.31 32.558 0.289 7.68 2.67 13.73
1/21/2021 4:00:00 AM 0.3 32.54 0.29 7.63 2.69 13.74
1/21/2021 4:15:00 AM 0.3 32.54 0.291 7.68 2.67 13.73
1/21/2021 4:30:00 AM 0.29 32.522 0.291 7.67 2.64 13.74
1/21/2021 4:45:00 AM 0.29 32.522 0.291 7.65 2.78 13.74
1/21/2021 5:00:00 AM 0.28 32.504 0.291 7.67 2.67 13.75
1/21/2021 5:15:00 AM 0.27 32.486 0.291 7.66 2.61 13.75
1/21/2021 5:30:00 AM 0.25 32.45 0.291 7.62 2.65 13.76
1/21/2021 5:45:00 AM 0.22 32.396 0.291 7.66 3.01 13.76
1/21/2021 6:00:00 AM 0.19 32.342 0.292 7.61 2.7 13.78
1/21/2021 6:15:00 AM 0.15 32.27 0.293 7.65 3.55 13.79
1/21/2021 6:30:00 AM 0.11 32.198 0.295 7.61 2.76 13.8
1/21/2021 6:45:00 AM 0.08 32.144 0.297 7.63 2.67 13.8
1/21/2021 7:00:00 AM -99999.99 -179968 -99999.99 -99999.99 -99999.99 -99999.99
1/21/2021 7:15:00 AM -99999.99 -179968 -99999.99 -99999.99 -99999.99 -99999.99
1/21/2021 7:30:00 AM -99999.99 -179968 -99999.99 -99999.99 -99999.99 -99999.99
1/21/2021 7:45:00 AM -99999.99 -179968 -99999.99 -99999.99 -99999.99 -99999.99
1/21/2021 8:00:00 AM -99999.99 -179968 -99999.99 -99999.99 -99999.99 -99999.99
1/21/2021 8:15:00 AM -99999.99 -179968 -99999.99 -99999.99 -99999.99 -99999.99
1/21/2021 8:30:00 AM -99999.99 -179968 -99999.99 -99999.99 -99999.99 -99999.99
1/21/2021 8:45:00 AM -99999.99 -179968 -99999.99 -99999.99 -99999.99 -99999.99
1/21/2021 9:00:00 AM -99999.99 -179968 -99999.99 -99999.99 -99999.99 -99999.99
1/21/2021 9:15:00 AM -99999.99 -179968 -99999.99 -99999.99 -99999.99 -99999.99
1/21/2021 9:30:00 AM -99999.99 -179968 -99999.99 -99999.99 -99999.99 -99999.99
1/21/2021 9:45:00 AM -99999.99 -179968 -99999.99 -99999.99 -99999.99 -99999.99
1/21/2021 10:00:00 AM -99999.99 -179968 -99999.99 -99999.99 -99999.99 -99999.99
1/21/2021 10:15:00 AM -99999.99 -179968 -99999.99 -99999.99 -99999.99 -99999.99
1/21/2021 10:30:00 AM -99999.99 -179968 -99999.99 -99999.99 -99999.99 -99999.99
1/21/2021 10:45:00 AM -99999.99 -179968 -99999.99 -99999.99 -99999.99 -99999.99
1/21/2021 11:00:00 AM -99999.99 -179968 -99999.99 -99999.99 -99999.99 -99999.99
1/21/2021 11:15:00 AM -99999.99 -179968 -99999.99 -99999.99 -99999.99 -99999.99
1/21/2021 11:30:00 AM -99999.99 -179968 -99999.99 -99999.99 -99999.99 -99999.99
1/21/2021 11:45:00 AM -99999.99 -179968 -99999.99 -99999.99 -99999.99 -99999.99
1/21/2021 12:00:00 PM -99999.99 -179968 -99999.99 -99999.99 -99999.99 -99999.99
1/21/2021 12:15:00 PM -99999.99 -179968 -99999.99 -99999.99 -99999.99 -99999.99
1/21/2021 12:30:00 PM -99999.99 -179968 -99999.99 -99999.99 -99999.99 -99999.99
1/21/2021 12:45:00 PM -99999.99 -179968 -99999.99 -99999.99 -99999.99 -99999.99
1/21/2021 1:00:00 PM -99999.99 -179968 -99999.99 -99999.99 -99999.99 -99999.99
1/21/2021 1:15:00 PM -99999.99 -179968 -99999.99 -99999.99 -99999.99 -99999.99
1/21/2021 1:30:00 PM -99999.99 -179968 -99999.99 -99999.99 -99999.99 -99999.99
1/21/2021 1:45:00 PM -99999.99 -179968 -99999.99 -99999.99 -99999.99 -99999.99
1/21/2021 2:00:00 PM -99999.99 -179968 -99999.99 -99999.99 -99999.99 -99999.99
1/21/2021 2:15:00 PM -99999.99 -179968 -99999.99 -99999.99 -99999.99 -99999.99
1/21/2021 2:30:00 PM -99999.99 -179968 -99999.99 -99999.99 -99999.99 -99999.99
1/21/2021 2:45:00 PM -99999.99 -179968 -99999.99 -99999.99 -99999.99 -99999.99
1/21/2021 3:00:00 PM -99999.99 -179968 -99999.99 -99999.99 -99999.99 -99999.99
1/21/2021 3:15:00 PM -99999.99 -179968 -99999.99 -99999.99 -99999.99 -99999.99
1/21/2021 3:30:00 PM -99999.99 -179968 -99999.99 -99999.99 -99999.99 -99999.99
1/21/2021 3:45:00 PM -99999.99 -179968 -99999.99 -99999.99 -99999.99 -99999.99
1/21/2021 4:00:00 PM -99999.99 -179968 -99999.99 -99999.99 -99999.99 -99999.99
1/21/2021 4:15:00 PM -99999.99 -179968 -99999.99 -99999.99 -99999.99 -99999.99
1/21/2021 4:30:00 PM -99999.99 -179968 -99999.99 -99999.99 -99999.99 -99999.99
1/21/2021 4:45:00 PM -99999.99 -179968 -99999.99 -99999.99 -99999.99 -99999.99
1/21/2021 5:00:00 PM -99999.99 -179968 -99999.99 -99999.99 -99999.99 -99999.99
1/21/2021 5:15:00 PM -99999.99 -179968 -99999.99 -99999.99 -99999.99 -99999.99
1/21/2021 5:30:00 PM -99999.99 -179968 -99999.99 -99999.99 -99999.99 -99999.99
1/21/2021 5:45:00 PM -99999.99 -179968 -99999.99 -99999.99 -99999.99 -99999.99
1/21/2021 6:00:00 PM -99999.99 -179968 -99999.99 -99999.99 -99999.99 -99999.99
1/21/2021 6:15:00 PM -99999.99 -179968 -99999.99 -99999.99 -99999.99 -99999.99
1/21/2021 6:30:00 PM -99999.99 -179968 -99999.99 -99999.99 -99999.99 -99999.99
1/21/2021 6:45:00 PM -99999.99 -179968 -99999.99 -99999.99 -99999.99 -99999.99
1/21/2021 7:00:00 PM -99999.99 -179968 -99999.99 -99999.99 -99999.99 -99999.99
1/21/2021 7:15:00 PM -99999.99 -179968 -99999.99 -99999.99 -99999.99 -99999.99
1/21/2021 7:30:00 PM -99999.99 -179968 -99999.99 -99999.99 -99999.99 -99999.99
1/21/2021 7:45:00 PM -99999.99 -179968 -99999.99 -99999.99 -99999.99 -99999.99
1/21/2021 8:00:00 PM -99999.99 -179968 -99999.99 -99999.99 -99999.99 -99999.99
1/21/2021 8:15:00 PM -99999.99 -179968 -99999.99 -99999.99 -99999.99 -99999.99
1/21/2021 8:30:00 PM -99999.99 -179968 -99999.99 -99999.99 -99999.99 -99999.99
1/21/2021 8:45:00 PM -99999.99 -179968 -99999.99 -99999.99 -99999.99 -99999.99
1/21/2021 9:00:00 PM -99999.99 -179968 -99999.99 -99999.99 -99999.99 -99999.99
1/21/2021 9:15:00 PM -99999.99 -179968 -99999.99 -99999.99 -99999.99 -99999.99
1/21/2021 9:30:00 PM -99999.99 -179968 -99999.99 -99999.99 -99999.99 -99999.99
1/21/2021 9:45:00 PM -99999.99 -179968 -99999.99 -99999.99 -99999.99 -99999.99
1/21/2021 10:00:00 PM -99999.99 -179968 -99999.99 -99999.99 -99999.99 -99999.99
1/21/2021 10:15:00 PM -99999.99 -179968 -99999.99 -99999.99 -99999.99 -99999.99
1/21/2021 10:30:00 PM -99999.99 -179968 -99999.99 -99999.99 -99999.99 -99999.99
1/21/2021 10:45:00 PM -99999.99 -179968 -99999.99 -99999.99 -99999.99 -99999.99
1/21/2021 11:00:00 PM -99999.99 -179968 -99999.99 -99999.99 -99999.99 -99999.99
1/21/2021 11:15:00 PM 1.62 34.916 0.331 7.83 3.05 13.21
1/21/2021 11:30:00 PM 1.64 34.952 0.33 7.75 2.74 13.2
1/21/2021 11:45:00 PM 1.67 35.006 0.329 7.73 2.7 13.19
1/22/2021 12:00:00 AM 1.68 35.024 0.33 7.72 2.78 13.17
1/22/2021 12:15:00 AM 1.7 35.06 0.328 7.72 2.79 13.16
1/22/2021 12:30:00 AM 1.71 35.078 0.329 7.73 2.95 13.15
1/22/2021 12:45:00 AM 1.74 35.132 0.331 7.69 2.64 13.13
1/22/2021 1:00:00 AM 1.76 35.168 0.331 7.71 2.66 13.12
1/22/2021 1:15:00 AM 1.77 35.186 0.33 7.71 2.79 13.1
1/22/2021 1:30:00 AM 1.78 35.204 0.331 7.67 2.75 13.09
1/22/2021 1:45:00 AM 1.77 35.186 0.329 7.7 2.66 13.09
1/22/2021 2:00:00 AM 1.76 35.168 0.328 7.7 2.69 13.08
1/22/2021 2:15:00 AM 1.76 35.168 0.326 7.7 2.67 13.08
1/22/2021 2:30:00 AM 1.75 35.15 0.324 7.7 2.68 13.08
1/22/2021 2:45:00 AM 1.73 35.114 0.322 7.67 2.7 13.09
1/22/2021 3:00:00 AM 1.71 35.078 0.32 7.67 2.83 13.09
1/22/2021 3:15:00 AM 1.7 35.06 0.318 7.68 2.75 13.1
1/22/2021 3:30:00 AM 1.68 35.024 0.317 7.69 2.73 13.11
1/22/2021 3:45:00 AM 1.66 34.988 0.317 7.66 2.78 13.11
1/22/2021 4:00:00 AM 1.64 34.952 0.316 7.69 2.9 13.11
1/22/2021 4:15:00 AM 1.62 34.916 0.315 7.68 2.99 13.12
1/22/2021 4:30:00 AM 1.59 34.862 0.315 7.66 2.84 13.12
1/22/2021 4:45:00 AM 1.57 34.826 0.314 7.68 2.69 13.13
1/22/2021 5:00:00 AM 1.55 34.79 0.313 7.68 2.74 13.14
1/22/2021 5:15:00 AM 1.52 34.736 0.313 7.65 2.75 13.14
1/22/2021 5:30:00 AM 1.49 34.682 0.313 7.68 2.76 13.15
1/22/2021 5:45:00 AM 1.47 34.646 0.313 7.64 2.76 13.16
1/22/2021 6:00:00 AM 1.44 34.592 0.313 7.67 2.83 13.18
1/22/2021 6:15:00 AM 1.42 34.556 0.313 7.65 2.86 13.18
1/22/2021 6:30:00 AM 1.39 34.502 0.314 7.66 2.65 13.2
1/22/2021 6:45:00 AM 1.37 34.466 0.314 7.67 2.88 13.2
1/22/2021 7:00:00 AM 1.35 34.43 0.315 7.67 2.56 13.21
1/22/2021 7:15:00 AM 1.34 34.412 0.315 7.63 2.71 13.21
1/22/2021 7:30:00 AM 1.32 34.376 0.314 7.67 2.67 13.23
1/22/2021 7:45:00 AM 1.32 34.376 0.315 7.67 2.61 13.25
1/22/2021 8:00:00 AM 1.31 34.358 0.314 7.68 2.65 13.32
1/22/2021 8:15:00 AM 1.33 34.394 0.313 7.7 2.7 13.42
1/22/2021 8:30:00 AM 1.35 34.43 0.313 7.7 2.65 13.54
1/22/2021 8:45:00 AM 1.37 34.466 0.312 7.75 2.62 13.67
1/22/2021 9:00:00 AM 1.39 34.502 0.311 7.77 2.63 13.8
1/22/2021 9:15:00 AM 1.41 34.538 0.311 7.78 2.55 13.87
1/22/2021 9:30:00 AM 1.43 34.574 0.311 7.8 2.56 13.98
1/22/2021 9:45:00 AM 1.47 34.646 0.311 7.86 2.53 14.09
1/22/2021 10:00:00 AM 1.51 34.718 0.31 7.87 2.54 14.2
1/22/2021 10:15:00 AM 1.53 34.754 0.309 7.91 2.55 14.29
1/22/2021 10:30:00 AM 1.55 34.79 0.308 7.96 2.54 14.38
1/22/2021 10:45:00 AM 1.58 34.844 0.307 7.97 2.48 14.45
1/22/2021 11:00:00 AM 1.61 34.898 0.306 8.01 2.57 14.54
1/22/2021 11:15:00 AM 1.64 34.952 0.306 8.05 2.49 14.62
1/22/2021 11:30:00 AM 1.67 35.006 0.305 8.11 2.57 14.69
1/22/2021 11:45:00 AM 1.69 35.042 0.304 8.12 2.53 14.77
1/22/2021 12:00:00 PM 1.72 35.096 0.304 8.18 2.51 14.83
1/22/2021 12:15:00 PM 1.75 35.15 0.305 8.23 2.5 14.88
1/22/2021 12:30:00 PM 1.79 35.222 0.304 8.27 2.5 14.94
1/22/2021 12:45:00 PM 1.84 35.312 0.304 8.32 2.56 15
1/22/2021 1:00:00 PM 1.88 35.384 0.303 8.36 2.57 15.05
1/22/2021 1:15:00 PM 1.91 35.438 0.301 8.4 2.45 15.07
1/22/2021 1:30:00 PM 1.93 35.474 0.3 8.41 2.55 15.06
1/22/2021 1:45:00 PM 1.97 35.546 0.297 8.45 2.55 15.08
1/22/2021 2:00:00 PM 1.98 35.564 0.295 8.45 2.48 15
1/22/2021 2:15:00 PM 1.99 35.582 0.292 8.42 2.42 14.95
1/22/2021 2:30:00 PM 2 35.6 0.29 8.46 2.48 14.93
1/22/2021 2:45:00 PM 2.01 35.618 0.288 8.42 2.48 14.87
1/22/2021 3:00:00 PM 2.02 35.636 0.286 8.43 2.41 14.83
1/22/2021 3:15:00 PM 2.04 35.672 0.284 8.45 2.46 14.86
1/22/2021 3:30:00 PM 2.06 35.708 0.283 8.49 2.53 14.89
1/22/2021 3:45:00 PM 2.08 35.744 0.283 8.48 2.49 14.91
1/22/2021 4:00:00 PM 2.08 35.744 0.282 8.52 2.57 14.85
1/22/2021 4:15:00 PM 2.07 35.726 0.282 8.48 2.56 14.72
1/22/2021 4:30:00 PM 1.89 35.402 0.282 8.43 2.55 14.54
1/22/2021 4:45:00 PM 1.86 35.348 0.283 8.38 2.47 14.43
1/22/2021 5:00:00 PM 1.89 35.402 0.283 8.3 2.59 14.34
1/22/2021 5:15:00 PM 1.89 35.402 0.284 8.28 2.6 14.24
1/22/2021 5:30:00 PM 1.9 35.42 0.285 8.22 2.51 14.11
1/22/2021 5:45:00 PM 1.89 35.402 0.285 8.16 2.52 14
1/22/2021 6:00:00 PM 1.89 35.402 0.286 8.1 2.61 13.9
1/22/2021 6:15:00 PM 1.88 35.384 0.285 8.03 2.51 13.83
1/22/2021 6:30:00 PM 1.87 35.366 0.284 8.02 2.53 13.76
1/22/2021 6:45:00 PM 1.86 35.348 0.284 7.99 2.55 13.71
1/22/2021 7:00:00 PM 1.85 35.33 0.283 7.94 2.57 13.65
1/22/2021 7:15:00 PM 1.84 35.312 0.283 7.93 2.49 13.6
1/22/2021 7:30:00 PM 1.82 35.276 0.283 7.87 2.47 13.56
1/22/2021 7:45:00 PM 1.8 35.24 0.283 7.87 2.46 13.53
1/22/2021 8:00:00 PM 1.77 35.186 0.282 7.85 2.59 13.49
1/22/2021 8:15:00 PM 1.75 35.15 0.283 7.82 2.63 13.47
1/22/2021 8:30:00 PM 1.73 35.114 0.283 7.82 2.56 13.45
1/22/2021 8:45:00 PM 1.72 35.096 0.282 7.81 2.94 13.42
1/22/2021 9:00:00 PM 1.7 35.06 0.282 7.77 2.55 13.4
1/22/2021 9:15:00 PM 1.69 35.042 0.281 7.76 2.51 13.39
1/22/2021 9:30:00 PM 1.68 35.024 0.281 7.76 2.48 13.37
1/22/2021 9:45:00 PM 1.66 34.988 0.281 7.77 2.53 13.36
1/22/2021 10:00:00 PM 1.63 34.934 0.281 7.73 2.51 13.35
1/22/2021 10:15:00 PM 1.63 34.934 0.282 7.75 2.46 13.35
1/22/2021 10:30:00 PM 1.61 34.898 0.282 7.72 2.5 13.34
1/22/2021 10:45:00 PM 1.6 34.88 0.284 7.74 2.44 13.34
1/22/2021 11:00:00 PM 1.59 34.862 0.285 7.7 2.53 13.33
1/22/2021 11:15:00 PM 1.58 34.844 0.288 7.71 2.5 13.33
1/22/2021 11:30:00 PM 1.57 34.826 0.289 7.73 2.45 13.33
1/22/2021 11:45:00 PM 1.56 34.808 0.29 7.72 2.55 13.33
1/23/2021 12:00:00 AM 1.54 34.772 0.291 7.7 2.51 13.33
1/23/2021 12:15:00 AM 1.52 34.736 0.293 7.72 2.64 13.33
1/23/2021 12:30:00 AM 1.5 34.7 0.293 7.72 2.51 13.34
1/23/2021 12:45:00 AM 1.46 34.628 0.293 7.72 2.55 13.34
1/23/2021 1:00:00 AM 1.44 34.592 0.294 7.69 2.57 13.35
1/23/2021 1:15:00 AM 1.44 34.592 0.294 7.69 2.54 13.35
1/23/2021 1:30:00 AM 1.43 34.574 0.295 7.71 2.53 13.35
1/23/2021 1:45:00 AM 1.42 34.556 0.296 7.69 2.8 13.36
1/23/2021 2:00:00 AM 1.4 34.52 0.297 7.71 2.63 13.36
1/23/2021 2:15:00 AM 1.37 34.466 0.297 7.68 2.55 13.37
1/23/2021 2:30:00 AM 1.36 34.448 0.297 7.7 2.66 13.37
1/23/2021 2:45:00 AM 1.35 34.43 0.298 7.67 2.55 13.37
1/23/2021 3:00:00 AM 1.32 34.376 0.298 7.7 2.96 13.39
1/23/2021 3:15:00 AM 1.29 34.322 0.297 7.68 2.59 13.4
1/23/2021 3:30:00 AM 1.27 34.286 0.297 7.68 2.56 13.4
1/23/2021 3:45:00 AM 1.24 34.232 0.297 7.68 2.56 13.41
1/23/2021 4:00:00 AM 1.19 34.142 0.298 7.68 2.53 13.42
1/23/2021 4:15:00 AM 1.14 34.052 0.298 7.69 2.51 13.44
1/23/2021 4:30:00 AM 1.12 34.016 0.299 7.67 2.62 13.45
1/23/2021 4:45:00 AM 1.09 33.962 0.3 7.69 2.43 13.46
1/23/2021 5:00:00 AM 1.08 33.944 0.301 7.68 2.52 13.45
1/23/2021 5:15:00 AM 1.05 33.89 0.3 7.67 2.51 13.47
1/23/2021 5:30:00 AM 1.01 33.818 0.301 7.67 2.5 13.47
1/23/2021 5:45:00 AM 0.98 33.764 0.301 7.68 2.49 13.49
1/23/2021 6:00:00 AM 0.95 33.71 0.301 7.69 2.58 13.51
1/23/2021 6:15:00 AM 0.92 33.656 0.301 7.67 2.4 13.52
1/23/2021 6:30:00 AM 0.9 33.62 0.302 7.68 2.52 13.53
1/23/2021 6:45:00 AM 0.87 33.566 0.302 7.68 2.46 13.55
1/23/2021 7:00:00 AM 0.84 33.512 0.303 7.69 2.48 13.56
1/23/2021 7:15:00 AM 0.82 33.476 0.304 7.67 2.44 13.57
1/23/2021 7:30:00 AM 0.79 33.422 0.304 7.67 2.45 13.59
1/23/2021 7:45:00 AM 0.77 33.386 0.304 7.69 2.5 13.63
1/23/2021 8:00:00 AM 0.75 33.35 0.305 7.69 2.36 13.71
1/23/2021 8:15:00 AM 0.73 33.314 0.304 7.72 2.46 13.83
1/23/2021 8:30:00 AM 0.73 33.314 0.304 7.76 2.43 13.99
1/23/2021 8:45:00 AM 0.71 33.278 0.304 7.75 2.68 14.15
1/23/2021 9:00:00 AM 0.7 33.26 0.303 7.8 2.53 14.31
1/23/2021 9:15:00 AM 0.72 33.296 0.303 7.85 2.47 14.51
1/23/2021 9:30:00 AM 0.74 33.332 0.302 7.9 2.57 14.72
1/23/2021 9:45:00 AM 0.77 33.386 0.302 7.96 2.43 14.91
1/23/2021 10:00:00 AM 0.8 33.44 0.301 7.99 2.45 15.08
1/23/2021 10:15:00 AM 0.81 33.458 0.3 8.08 2.53 15.23
1/23/2021 10:30:00 AM 0.83 33.494 0.299 8.1 2.45 15.34
1/23/2021 10:45:00 AM 0.86 33.548 0.298 8.17 2.49 15.45
1/23/2021 11:00:00 AM 0.9 33.62 0.297 8.24 2.49 15.56
1/23/2021 11:15:00 AM 0.92 33.656 0.296 8.29 2.5 15.63
1/23/2021 11:30:00 AM 0.94 33.692 0.295 8.3 2.49 15.7
1/23/2021 11:45:00 AM 0.96 33.728 0.294 8.38 2.82 15.76
1/23/2021 12:00:00 PM 0.97 33.746 0.293 8.41 2.51 15.81
1/23/2021 12:15:00 PM 0.98 33.764 0.292 8.46 2.56 15.85
1/23/2021 12:30:00 PM 0.97 33.746 0.292 8.48 2.49 15.88
1/23/2021 12:45:00 PM -99999.99 -179968 -99999.99 -99999.99 -99999.99 -99999.99
1/23/2021 1:00:00 PM -99999.99 -179968 -99999.99 -99999.99 -99999.99 -99999.99
1/23/2021 1:15:00 PM -99999.99 -179968 -99999.99 -99999.99 -99999.99 -99999.99
1/23/2021 1:30:00 PM -99999.99 -179968 -99999.99 -99999.99 -99999.99 -99999.99
1/23/2021 1:45:00 PM -99999.99 -179968 -99999.99 -99999.99 -99999.99 -99999.99
1/23/2021 2:00:00 PM -99999.99 -179968 -99999.99 -99999.99 -99999.99 -99999.99
1/23/2021 2:15:00 PM -99999.99 -179968 -99999.99 -99999.99 -99999.99 -99999.99
1/23/2021 2:30:00 PM -99999.99 -179968 -99999.99 -99999.99 -99999.99 -99999.99
1/23/2021 2:45:00 PM -99999.99 -179968 -99999.99 -99999.99 -99999.99 -99999.99
1/23/2021 3:00:00 PM -99999.99 -179968 -99999.99 -99999.99 -99999.99 -99999.99
1/23/2021 3:15:00 PM -99999.99 -179968 -99999.99 -99999.99 -99999.99 -99999.99
1/23/2021 3:30:00 PM -99999.99 -179968 -99999.99 -99999.99 -99999.99 -99999.99
1/23/2021 3:45:00 PM -99999.99 -179968 -99999.99 -99999.99 -99999.99 -99999.99
1/23/2021 4:00:00 PM -99999.99 -179968 -99999.99 -99999.99 -99999.99 -99999.99
1/23/2021 4:15:00 PM -99999.99 -179968 -99999.99 -99999.99 -99999.99 -99999.99
1/23/2021 4:30:00 PM -99999.99 -179968 -99999.99 -99999.99 -99999.99 -99999.99
1/23/2021 4:45:00 PM -99999.99 -179968 -99999.99 -99999.99 -99999.99 -99999.99
1/23/2021 5:00:00 PM -99999.99 -179968 -99999.99 -99999.99 -99999.99 -99999.99
1/23/2021 5:15:00 PM -99999.99 -179968 -99999.99 -99999.99 -99999.99 -99999.99
1/23/2021 5:30:00 PM -99999.99 -179968 -99999.99 -99999.99 -99999.99 -99999.99
1/23/2021 5:45:00 PM -99999.99 -179968 -99999.99 -99999.99 -99999.99 -99999.99
1/23/2021 6:00:00 PM -99999.99 -179968 -99999.99 -99999.99 -99999.99 -99999.99
1/23/2021 6:15:00 PM -99999.99 -179968 -99999.99 -99999.99 -99999.99 -99999.99
1/23/2021 6:30:00 PM -99999.99 -179968 -99999.99 -99999.99 -99999.99 -99999.99
1/23/2021 6:45:00 PM -99999.99 -179968 -99999.99 -99999.99 -99999.99 -99999.99
1/23/2021 7:00:00 PM -99999.99 -179968 -99999.99 -99999.99 -99999.99 -99999.99
1/23/2021 7:15:00 PM -99999.99 -179968 -99999.99 -99999.99 -99999.99 -99999.99
1/23/2021 7:30:00 PM -99999.99 -179968 -99999.99 -99999.99 -99999.99 -99999.99
1/23/2021 7:45:00 PM -99999.99 -179968 -99999.99 -99999.99 -99999.99 -99999.99
1/23/2021 8:00:00 PM -99999.99 -179968 -99999.99 -99999.99 -99999.99 -99999.99
1/23/2021 8:15:00 PM -99999.99 -179968 -99999.99 -99999.99 -99999.99 -99999.99
1/23/2021 8:30:00 PM -99999.99 -179968 -99999.99 -99999.99 -99999.99 -99999.99
1/23/2021 8:45:00 PM -99999.99 -179968 -99999.99 -99999.99 -99999.99 -99999.99
1/23/2021 9:00:00 PM -99999.99 -179968 -99999.99 -99999.99 -99999.99 -99999.99
1/23/2021 9:15:00 PM -99999.99 -179968 -99999.99 -99999.99 -99999.99 -99999.99
1/23/2021 9:30:00 PM -99999.99 -179968 -99999.99 -99999.99 -99999.99 -99999.99
1/23/2021 9:45:00 PM -99999.99 -179968 -99999.99 -99999.99 -99999.99 -99999.99
1/23/2021 10:00:00 PM -99999.99 -179968 -99999.99 -99999.99 -99999.99 -99999.99
1/23/2021 10:15:00 PM -99999.99 -179968 -99999.99 -99999.99 -99999.99 -99999.99
1/23/2021 10:30:00 PM -99999.99 -179968 -99999.99 -99999.99 -99999.99 -99999.99
1/23/2021 10:45:00 PM -99999.99 -179968 -99999.99 -99999.99 -99999.99 -99999.99
1/23/2021 11:00:00 PM -99999.99 -179968 -99999.99 -99999.99 -99999.99 -99999.99
1/23/2021 11:15:00 PM -99999.99 -179968 -99999.99 -99999.99 -99999.99 -99999.99
1/23/2021 11:30:00 PM -99999.99 -179968 -99999.99 -99999.99 -99999.99 -99999.99
1/23/2021 11:45:00 PM -99999.99 -179968 -99999.99 -99999.99 -99999.99 -99999.99
1/24/2021 12:00:00 AM -99999.99 -179968 -99999.99 -99999.99 -99999.99 -99999.99
1/24/2021 12:15:00 AM -99999.99 -179968 -99999.99 -99999.99 -99999.99 -99999.99
1/24/2021 12:30:00 AM -99999.99 -179968 -99999.99 -99999.99 -99999.99 -99999.99
1/24/2021 12:45:00 AM -99999.99 -179968 -99999.99 -99999.99 -99999.99 -99999.99
1/24/2021 1:00:00 AM -99999.99 -179968 -99999.99 -99999.99 -99999.99 -99999.99
1/24/2021 1:15:00 AM -99999.99 -179968 -99999.99 -99999.99 -99999.99 -99999.99
1/24/2021 1:30:00 AM -99999.99 -179968 -99999.99 -99999.99 -99999.99 -99999.99
1/24/2021 1:45:00 AM -99999.99 -179968 -99999.99 -99999.99 -99999.99 -99999.99
1/24/2021 2:00:00 AM -99999.99 -179968 -99999.99 -99999.99 -99999.99 -99999.99
1/24/2021 2:15:00 AM -99999.99 -179968 -99999.99 -99999.99 -99999.99 -99999.99
1/24/2021 2:30:00 AM -99999.99 -179968 -99999.99 -99999.99 -99999.99 -99999.99
1/24/2021 2:45:00 AM -99999.99 -179968 -99999.99 -99999.99 -99999.99 -99999.99
1/24/2021 3:00:00 AM -99999.99 -179968 -99999.99 -99999.99 -99999.99 -99999.99
1/24/2021 3:15:00 AM -99999.99 -179968 -99999.99 -99999.99 -99999.99 -99999.99
1/24/2021 3:30:00 AM -99999.99 -179968 -99999.99 -99999.99 -99999.99 -99999.99
1/24/2021 3:45:00 AM -99999.99 -179968 -99999.99 -99999.99 -99999.99 -99999.99
1/24/2021 4:00:00 AM -99999.99 -179968 -99999.99 -99999.99 -99999.99 -99999.99
1/24/2021 4:15:00 AM -99999.99 -179968 -99999.99 -99999.99 -99999.99 -99999.99
1/24/2021 4:30:00 AM -99999.99 -179968 -99999.99 -99999.99 -99999.99 -99999.99
1/24/2021 4:45:00 AM -99999.99 -179968 -99999.99 -99999.99 -99999.99 -99999.99
1/24/2021 5:00:00 AM -99999.99 -179968 -99999.99 -99999.99 -99999.99 -99999.99
1/24/2021 5:15:00 AM -99999.99 -179968 -99999.99 -99999.99 -99999.99 -99999.99
1/24/2021 5:30:00 AM -99999.99 -179968 -99999.99 -99999.99 -99999.99 -99999.99
1/24/2021 5:45:00 AM -99999.99 -179968 -99999.99 -99999.99 -99999.99 -99999.99
1/24/2021 6:00:00 AM -99999.99 -179968 -99999.99 -99999.99 -99999.99 -99999.99
1/24/2021 6:15:00 AM -99999.99 -179968 -99999.99 -99999.99 -99999.99 -99999.99
1/24/2021 6:30:00 AM -99999.99 -179968 -99999.99 -99999.99 -99999.99 -99999.99
1/24/2021 6:45:00 AM -99999.99 -179968 -99999.99 -99999.99 -99999.99 -99999.99
1/24/2021 7:00:00 AM -99999.99 -179968 -99999.99 -99999.99 -99999.99 -99999.99
1/24/2021 7:15:00 AM -99999.99 -179968 -99999.99 -99999.99 -99999.99 -99999.99
1/24/2021 7:30:00 AM -99999.99 -179968 -99999.99 -99999.99 -99999.99 -99999.99
1/24/2021 7:45:00 AM -99999.99 -179968 -99999.99 -99999.99 -99999.99 -99999.99
1/24/2021 8:00:00 AM -99999.99 -179968 -99999.99 -99999.99 -99999.99 -99999.99
1/24/2021 8:15:00 AM -99999.99 -179968 -99999.99 -99999.99 -99999.99 -99999.99
1/24/2021 8:30:00 AM -99999.99 -179968 -99999.99 -99999.99 -99999.99 -99999.99
1/24/2021 8:45:00 AM -99999.99 -179968 -99999.99 -99999.99 -99999.99 -99999.99
1/24/2021 9:00:00 AM -99999.99 -179968 -99999.99 -99999.99 -99999.99 -99999.99
1/24/2021 9:15:00 AM -99999.99 -179968 -99999.99 -99999.99 -99999.99 -99999.99
1/24/2021 9:30:00 AM -99999.99 -179968 -99999.99 -99999.99 -99999.99 -99999.99
1/24/2021 9:45:00 AM -99999.99 -179968 -99999.99 -99999.99 -99999.99 -99999.99
1/24/2021 10:00:00 AM -99999.99 -179968 -99999.99 -99999.99 -99999.99 -99999.99
1/24/2021 10:15:00 AM -99999.99 -179968 -99999.99 -99999.99 -99999.99 -99999.99
1/24/2021 10:30:00 AM -99999.99 -179968 -99999.99 -99999.99 -99999.99 -99999.99
1/24/2021 10:45:00 AM -99999.99 -179968 -99999.99 -99999.99 -99999.99 -99999.99
1/24/2021 11:00:00 AM -99999.99 -179968 -99999.99 -99999.99 -99999.99 -99999.99
2/3/2021 9:15:00 AM 0.56 33.008 0.688 7.91 3.5 14.32
2/3/2021 9:30:00 AM 0.58 33.044 0.687 7.95 2.66 14.53
2/3/2021 9:45:00 AM 0.61 33.098 0.686 7.99 2.8 14.72
2/3/2021 10:00:00 AM 0.65 33.17 0.687 8.05 2.63 14.93
2/3/2021 10:15:00 AM 0.69 33.242 0.685 8.11 2.59 15.1
2/3/2021 10:30:00 AM 0.76 33.368 0.684 8.17 2.6 15.26
2/3/2021 10:45:00 AM 0.84 33.512 0.684 8.23 2.56 15.42
2/3/2021 11:00:00 AM 0.88 33.584 0.683 8.3 2.55 15.53
2/3/2021 11:15:00 AM 0.94 33.692 0.681 8.35 2.53 15.63
2/3/2021 11:30:00 AM 0.99 33.782 0.677 8.41 2.53 15.72
2/3/2021 11:45:00 AM 1.06 33.908 0.674 8.46 2.51 15.81
2/3/2021 12:00:00 PM 1.1 33.98 0.672 8.51 2.55 15.88
2/3/2021 12:15:00 PM 1.13 34.034 0.668 8.56 2.55 15.94
2/3/2021 12:30:00 PM 1.19 34.142 0.665 8.61 2.52 15.98
2/3/2021 12:45:00 PM 1.34 34.412 0.661 8.65 2.53 16.02
2/3/2021 1:00:00 PM 1.47 34.646 0.659 8.68 2.52 16.05
2/3/2021 1:15:00 PM 1.56 34.808 0.655 8.73 2.48 16.07
2/3/2021 1:30:00 PM 1.69 35.042 0.652 8.75 2.48 16.1
2/3/2021 1:45:00 PM 1.83 35.294 0.65 8.8 2.47 16.13
2/3/2021 2:00:00 PM 1.94 35.492 0.648 8.84 2.52 16.14
2/3/2021 2:15:00 PM 2.03 35.654 0.646 8.85 2.6 16.16
2/3/2021 2:30:00 PM 2.11 35.798 0.645 8.91 2.6 16.17
2/3/2021 2:45:00 PM 2.14 35.852 0.644 8.95 2.44 16.18
2/3/2021 3:00:00 PM 2.16 35.888 0.643 8.98 2.63 16.19
2/3/2021 3:15:00 PM 2.17 35.906 0.644 9.01 2.46 16.18
2/3/2021 3:30:00 PM 2.16 35.888 0.645 9.02 2.48 16.16
2/3/2021 3:45:00 PM 2.17 35.906 0.648 9.06 2.57 16.15
2/3/2021 4:00:00 PM 2.18 35.924 0.65 9.07 2.44 16.11
2/3/2021 4:15:00 PM 2.16 35.888 0.652 9.09 2.54 16.04
2/3/2021 4:30:00 PM 2.14 35.852 0.655 9.09 2.55 15.94
2/3/2021 4:45:00 PM 2.09 35.762 0.657 9.11 2.5 15.82
2/3/2021 5:00:00 PM 2.04 35.672 0.66 9.09 2.46 15.68
2/3/2021 5:15:00 PM 1.98 35.564 0.664 9.09 2.52 15.49
2/3/2021 5:30:00 PM 1.94 35.492 0.671 9.07 5.39 15.28
2/3/2021 5:45:00 PM 1.89 35.402 0.673 9.02 2.61 15.05
2/3/2021 6:00:00 PM 1.84 35.312 0.678 8.99 2.59 14.83
2/3/2021 6:15:00 PM 1.8 35.24 0.68 8.96 2.62 14.65
2/3/2021 6:30:00 PM 1.75 35.15 0.685 8.91 2.62 14.49
2/3/2021 6:45:00 PM 1.72 35.096 0.689 8.88 2.67 14.36
2/3/2021 7:00:00 PM 1.68 35.024 0.692 8.84 2.63 14.25
2/3/2021 7:15:00 PM 1.64 34.952 0.693 8.79 2.62 14.17
2/3/2021 7:30:00 PM 1.58 34.844 0.693 8.76 2.61 14.1
2/3/2021 7:45:00 PM 1.53 34.754 0.7 8.72 2.63 14.04
2/3/2021 8:00:00 PM 1.47 34.646 0.703 8.7 2.58 13.99
2/3/2021 8:15:00 PM 1.41 34.538 0.708 8.66 2.67 13.94
2/3/2021 8:30:00 PM 1.36 34.448 0.714 8.61 2.62 13.9
2/3/2021 8:45:00 PM 1.3 34.34 0.721 8.57 2.65 13.85
2/3/2021 9:00:00 PM 1.24 34.232 0.726 8.51 2.65 13.81
2/3/2021 9:15:00 PM 1.19 34.142 0.731 8.47 2.67 13.77
2/3/2021 9:30:00 PM 1.15 34.07 0.735 8.41 2.78 13.73
2/3/2021 9:45:00 PM 1.09 33.962 0.738 8.37 2.74 13.7
2/3/2021 10:00:00 PM 1.03 33.854 0.739 8.31 2.78 13.67
2/3/2021 10:15:00 PM 0.97 33.746 0.737 8.25 2.84 13.65
2/3/2021 10:30:00 PM 0.91 33.638 0.738 8.19 2.81 13.63
2/3/2021 10:45:00 PM 0.86 33.548 0.738 8.14 2.9 13.61
2/3/2021 11:00:00 PM 0.82 33.476 0.739 8.08 2.92 13.59
2/3/2021 11:15:00 PM 0.77 33.386 0.741 8.04 2.95 13.57
2/3/2021 11:30:00 PM 0.73 33.314 0.745 8 2.93 13.56
2/3/2021 11:45:00 PM 0.7 33.26 0.745 7.98 2.92 13.55
2/4/2021 12:00:00 AM 0.68 33.224 0.748 7.95 2.96 13.54
2/4/2021 12:15:00 AM 0.65 33.17 0.751 7.92 2.87 13.54
2/4/2021 12:30:00 AM 0.63 33.134 0.754 7.91 2.88 13.53
2/4/2021 12:45:00 AM 0.63 33.134 0.76 7.89 2.82 13.52
2/4/2021 1:00:00 AM 0.63 33.134 0.766 7.87 2.78 13.52
2/4/2021 1:15:00 AM 0.62 33.116 0.77 7.86 2.8 13.51
2/4/2021 1:30:00 AM 0.6 33.08 0.773 7.85 2.84 13.51
2/4/2021 1:45:00 AM 0.61 33.098 0.778 7.85 2.82 13.5
2/4/2021 2:00:00 AM 0.61 33.098 0.782 7.83 2.76 13.49
2/4/2021 2:15:00 AM 0.6 33.08 0.787 7.83 2.73 13.49
2/4/2021 2:30:00 AM 0.59 33.062 0.791 7.81 2.7 13.48
2/4/2021 2:45:00 AM 0.57 33.026 0.797 7.81 2.75 13.48
2/4/2021 3:00:00 AM 0.55 32.99 0.803 7.81 2.68 13.48
2/4/2021 3:15:00 AM 0.53 32.954 0.808 7.8 2.62 13.48
2/4/2021 3:30:00 AM 0.52 32.936 0.814 7.8 2.61 13.48
2/4/2021 3:45:00 AM 0.5 32.9 0.821 7.79 2.61 13.48
2/4/2021 4:00:00 AM 0.49 32.882 0.827 7.79 2.56 13.48
2/4/2021 4:15:00 AM 0.48 32.864 0.834 7.78 2.54 13.47
2/4/2021 4:30:00 AM 0.48 32.864 0.842 7.77 2.55 13.47
2/4/2021 4:45:00 AM 0.46 32.828 0.846 7.76 2.55 13.47
2/4/2021 5:00:00 AM 0.45 32.81 0.852 7.77 2.6 13.46
2/4/2021 5:15:00 AM 0.46 32.828 0.858 7.76 2.53 13.46
2/4/2021 5:30:00 AM 0.45 32.81 0.859 7.76 2.49 13.45
2/4/2021 5:45:00 AM 0.44 32.792 0.861 7.74 2.53 13.45
2/4/2021 6:00:00 AM 0.43 32.774 0.862 7.75 2.5 13.46
2/4/2021 6:15:00 AM 0.41 32.738 0.863 7.74 2.48 13.46
2/4/2021 6:30:00 AM 0.38 32.684 0.864 7.74 2.54 13.46
2/4/2021 6:45:00 AM 0.35 32.63 0.863 7.74 2.46 13.47
2/4/2021 7:00:00 AM 0.31 32.558 0.863 7.73 2.49 13.49
2/4/2021 7:15:00 AM 0.26 32.468 0.863 7.73 2.5 13.5
2/4/2021 7:30:00 AM 0.21 32.378 0.863 7.73 2.55 13.53
2/4/2021 7:45:00 AM 0.18 32.324 0.864 7.74 2.5 13.6
2/4/2021 8:00:00 AM 0.14 32.252 0.864 7.75 2.51 13.71
2/4/2021 8:15:00 AM 0.12 32.216 0.864 7.77 2.54 13.86
2/4/2021 8:30:00 AM 0.11 32.198 0.863 7.8 2.49 14.02
2/4/2021 8:45:00 AM 0.11 32.198 0.86 7.82 2.43 14.22
2/4/2021 9:00:00 AM 0.14 32.252 0.856 7.86 2.48 14.43
2/4/2021 9:15:00 AM 0.19 32.342 0.852 7.9 2.49 14.63
2/4/2021 9:30:00 AM 0.25 32.45 0.846 7.94 2.46 14.84
2/4/2021 9:45:00 AM 0.36 32.648 0.841 8 2.42 15.05
2/4/2021 10:00:00 AM 0.49 32.882 0.833 8.05 2.43 15.26
2/4/2021 10:15:00 AM 0.64 33.152 0.827 8.1 2.43 15.42
2/4/2021 10:30:00 AM 0.79 33.422 0.822 8.17 2.45 15.55
2/4/2021 10:45:00 AM 0.91 33.638 0.819 8.22 2.45 15.67
2/4/2021 11:00:00 AM 1.05 33.89 0.817 8.28 2.41 15.77
2/4/2021 11:15:00 AM 1.2 34.16 0.813 8.34 2.52 15.85
2/4/2021 11:30:00 AM 1.34 34.412 0.81 8.38 2.46 15.91
2/4/2021 11:45:00 AM 1.45 34.61 0.807 8.43 2.39 15.97
2/4/2021 12:00:00 PM 1.55 34.79 0.808 8.48 2.42 16
2/4/2021 12:15:00 PM 1.64 34.952 0.806 8.53 2.55 16.03
2/4/2021 12:30:00 PM 1.73 35.114 0.804 8.57 2.56 16.06
2/4/2021 12:45:00 PM 1.83 35.294 0.806 8.6 2.41 16.07
2/4/2021 1:00:00 PM 1.93 35.474 0.808 8.65 2.45 16.09
2/4/2021 1:15:00 PM 2 35.6 0.808 8.68 2.37 16.1
2/4/2021 1:30:00 PM 2.08 35.744 0.811 8.7 2.37 16.11
2/4/2021 1:45:00 PM 2.19 35.942 0.817 8.74 2.46 16.13
2/4/2021 2:00:00 PM 2.29 36.122 0.825 8.77 2.4 16.13
2/4/2021 2:15:00 PM 2.36 36.248 0.832 8.81 2.41 16.13
2/4/2021 2:30:00 PM 2.42 36.356 0.841 8.82 2.37 16.12
2/4/2021 2:45:00 PM 2.49 36.482 0.849 8.87 2.4 16.12
2/4/2021 3:00:00 PM 2.53 36.554 0.855 8.89 2.42 16.09
2/4/2021 3:15:00 PM 2.56 36.608 0.863 8.91 2.43 16.06
2/4/2021 3:30:00 PM 2.56 36.608 0.868 8.94 2.41 16.02
2/4/2021 3:45:00 PM 2.55 36.59 0.876 8.94 2.52 15.96
2/4/2021 4:00:00 PM 2.52 36.536 0.88 8.97 2.64 15.88
2/4/2021 4:15:00 PM 2.48 36.464 0.886 8.97 2.56 15.8
2/4/2021 4:30:00 PM 2.44 36.392 0.889 8.98 2.67 15.7
2/4/2021 4:45:00 PM 2.41 36.338 0.892 8.98 2.56 15.58
2/4/2021 5:00:00 PM 2.37 36.266 0.893 8.98 2.52 15.43
2/4/2021 5:15:00 PM 2.33 36.194 0.891 8.96 2.52 15.25
2/4/2021 5:30:00 PM 2.3 36.14 0.885 8.94 2.54 15.04
2/4/2021 5:45:00 PM 2.27 36.086 0.879 8.92 2.56 14.82
2/4/2021 6:00:00 PM 2.24 36.032 0.871 8.88 2.46 14.61
2/4/2021 6:15:00 PM 2.21 35.978 0.86 8.85 2.63 14.44
2/4/2021 6:30:00 PM 2.18 35.924 0.847 8.81 2.55 14.29
2/4/2021 6:45:00 PM 2.13 35.834 0.833 8.76 2.52 14.17
2/4/2021 7:00:00 PM 2.07 35.726 0.816 8.73 2.54 14.07
2/4/2021 7:15:00 PM 2.01 35.618 0.803 8.69 2.55 13.99
2/4/2021 7:30:00 PM 1.96 35.528 0.792 8.63 2.53 13.92
2/4/2021 7:45:00 PM 1.89 35.402 0.784 8.59 2.57 13.87
2/4/2021 8:00:00 PM 1.83 35.294 0.78 8.54 2.55 13.81
2/4/2021 8:15:00 PM 1.78 35.204 0.78 8.49 2.54 13.76
2/4/2021 8:30:00 PM 1.73 35.114 0.784 8.44 2.54 13.72
2/4/2021 8:45:00 PM 1.69 35.042 0.791 8.37 2.45 13.66
2/4/2021 9:00:00 PM 1.64 34.952 0.798 8.32 2.53 13.62
2/4/2021 9:15:00 PM 1.61 34.898 0.81 8.26 2.56 13.57
2/4/2021 9:30:00 PM 1.58 34.844 0.819 8.2 2.53 13.53
2/4/2021 9:45:00 PM 1.55 34.79 0.829 8.15 2.49 13.49
2/4/2021 10:00:00 PM 1.52 34.736 0.838 8.1 2.49 13.45
2/4/2021 10:15:00 PM 1.5 34.7 0.846 8.06 2.55 13.42
2/4/2021 10:30:00 PM 1.49 34.682 0.856 8.01 2.49 13.38
2/4/2021 10:45:00 PM 1.48 34.664 0.864 7.99 2.48 13.35
2/4/2021 11:00:00 PM 1.46 34.628 0.871 7.95 2.51 13.31
2/4/2021 11:15:00 PM 1.46 34.628 0.88 7.93 2.52 13.28
2/4/2021 11:30:00 PM 1.46 34.628 0.888 7.9 2.51 13.25
2/4/2021 11:45:00 PM 1.47 34.646 0.897 7.88 2.55 13.22
2/5/2021 12:00:00 AM 1.47 34.646 0.905 7.86 2.56 13.19
2/5/2021 12:15:00 AM 1.46 34.628 0.911 7.86 2.5 13.17
2/5/2021 12:30:00 AM 1.41 34.538 0.918 7.85 2.61 13.15
2/5/2021 12:45:00 AM 1.4 34.52 0.928 7.83 2.59 13.12
2/5/2021 1:00:00 AM 1.41 34.538 0.936 7.83 2.57 13.1
2/5/2021 1:15:00 AM 1.43 34.574 0.944 7.82 2.58 13.08
2/5/2021 1:30:00 AM 1.45 34.61 0.952 7.8 2.54 13.06
2/5/2021 1:45:00 AM 1.48 34.664 0.964 7.8 2.58 13.03
2/5/2021 2:00:00 AM 1.51 34.718 0.971 7.78 2.57 13.01
2/5/2021 2:15:00 AM 1.53 34.754 0.978 7.79 2.62 12.98
2/5/2021 2:30:00 AM 1.55 34.79 0.984 7.76 2.55 12.96
2/5/2021 2:45:00 AM 1.58 34.844 0.988 7.77 2.57 12.94
2/5/2021 3:00:00 AM 1.61 34.898 0.991 7.77 2.57 12.92
2/5/2021 3:15:00 AM 1.64 34.952 0.995 7.75 2.58 12.9
2/5/2021 3:30:00 AM 1.66 34.988 0.994 7.75 2.54 12.88
2/5/2021 3:45:00 AM 1.67 35.006 0.993 7.75 2.58 12.87
2/5/2021 4:00:00 AM 1.68 35.024 0.99 7.75 2.56 12.86
2/5/2021 4:15:00 AM 1.69 35.042 0.987 7.73 2.52 12.85
2/5/2021 4:30:00 AM 1.7 35.06 0.983 7.73 2.59 12.84
2/5/2021 4:45:00 AM 1.71 35.078 0.979 7.74 2.55 12.82
2/5/2021 5:00:00 AM 1.73 35.114 0.973 7.72 2.58 12.81
2/5/2021 5:15:00 AM 1.74 35.132 0.968 7.73 2.59 12.8
2/5/2021 5:30:00 AM 1.75 35.15 0.96 7.73 2.57 12.8
2/5/2021 5:45:00 AM 1.76 35.168 0.953 7.72 2.58 12.79
2/5/2021 6:00:00 AM 1.77 35.186 0.946 7.72 2.54 12.78
2/5/2021 6:15:00 AM 1.77 35.186 0.938 7.72 2.57 12.78
2/5/2021 6:30:00 AM 1.76 35.168 0.93 7.71 2.56 12.78
2/5/2021 6:45:00 AM 1.74 35.132 0.925 7.71 2.54 12.78
2/5/2021 7:00:00 AM 1.74 35.132 0.923 7.71 2.58 12.78
2/5/2021 7:15:00 AM 1.73 35.114 0.921 7.71 2.55 12.78
2/5/2021 7:30:00 AM 1.73 35.114 0.921 7.72 2.51 12.79
2/5/2021 7:45:00 AM 1.73 35.114 0.922 7.72 2.6 12.85
2/5/2021 8:00:00 AM 1.75 35.15 0.922 7.72 2.49 12.93
2/5/2021 8:15:00 AM 1.77 35.186 0.922 7.76 2.52 13.05
2/5/2021 8:30:00 AM 1.81 35.258 0.924 7.78 2.5 13.22
2/5/2021 8:45:00 AM 1.86 35.348 0.924 7.81 2.47 13.43
2/5/2021 9:00:00 AM 1.93 35.474 0.925 7.86 2.52 13.68
2/5/2021 9:15:00 AM 1.98 35.564 0.921 7.92 2.52 13.94
2/5/2021 9:30:00 AM 2.04 35.672 0.923 7.99 2.49 14.2
2/5/2021 9:45:00 AM 2.14 35.852 0.92 8.06 2.48 14.44
2/5/2021 10:00:00 AM 2.19 35.942 0.918 8.15 2.49 14.66
2/5/2021 10:15:00 AM 2.27 36.086 0.917 8.22 2.5 14.86
2/5/2021 10:30:00 AM 2.34 36.212 0.916 8.3 2.49 15.02
2/5/2021 10:45:00 AM 2.37 36.266 0.914 8.38 2.49 15.15
2/5/2021 11:00:00 AM 2.38 36.284 0.911 8.43 2.54 15.26
2/5/2021 11:15:00 AM 2.39 36.302 0.907 8.5 2.48 15.33
2/5/2021 11:30:00 AM 2.42 36.356 0.902 8.54 2.47 15.4
2/5/2021 11:45:00 AM 2.48 36.464 0.895 8.6 2.45 15.51
2/5/2021 12:00:00 PM 2.54 36.572 0.89 8.65 2.45 15.6
2/5/2021 12:15:00 PM 2.6 36.68 0.885 8.69 2.47 15.68
2/5/2021 12:30:00 PM 2.65 36.77 0.88 8.74 2.46 15.75
2/5/2021 12:45:00 PM 2.65 36.77 0.872 8.79 2.64 15.8
2/5/2021 1:00:00 PM 2.68 36.824 0.871 8.82 2.46 15.85
2/5/2021 1:15:00 PM 2.67 36.806 0.865 8.86 2.51 15.86
2/5/2021 1:30:00 PM 2.7 36.86 0.861 8.89 2.52 15.89
2/5/2021 1:45:00 PM 2.74 36.932 0.857 8.92 2.59 15.93
2/5/2021 2:00:00 PM 2.77 36.986 0.851 8.95 2.5 15.97
2/5/2021 2:15:00 PM 2.8 37.04 0.845 8.98 2.49 15.99
2/5/2021 2:30:00 PM 2.85 37.13 0.841 9.02 2.49 16.03
2/5/2021 2:45:00 PM 2.86 37.148 0.835 9.05 2.56 16.03
2/5/2021 3:00:00 PM 2.9 37.22 0.831 9.07 2.53 16.03
2/5/2021 3:15:00 PM 2.9 37.22 0.826 9.11 2.52 16.03
2/5/2021 3:30:00 PM 2.92 37.256 0.824 9.13 2.62 16.01
2/5/2021 3:45:00 PM 2.92 37.256 0.82 9.15 2.59 15.94
2/5/2021 4:00:00 PM 2.9 37.22 0.815 9.16 2.55 15.85
2/5/2021 4:15:00 PM 2.88 37.184 0.811 9.18 2.57 15.73
2/5/2021 4:30:00 PM 2.85 37.13 0.805 9.17 2.58 15.61
2/5/2021 4:45:00 PM 2.81 37.058 0.801 9.17 2.58 15.46
2/5/2021 5:00:00 PM 2.77 36.986 0.796 9.16 2.63 15.28
2/5/2021 5:15:00 PM 2.73 36.914 0.792 9.15 2.63 15.09
2/5/2021 5:30:00 PM 2.7 36.86 0.789 9.12 2.58 14.91
2/5/2021 5:45:00 PM 2.66 36.788 0.785 9.1 2.59 14.68
2/5/2021 6:00:00 PM 2.62 36.716 0.781 9.07 2.58 14.46
2/5/2021 6:15:00 PM 2.56 36.608 0.779 9.03 2.65 14.27
2/5/2021 6:30:00 PM 2.52 36.536 0.778 8.99 2.6 14.12
2/5/2021 6:45:00 PM 2.44 36.392 0.771 8.97 2.58 13.98
2/5/2021 7:00:00 PM 2.4 36.32 0.77 8.92 2.71 13.88
2/5/2021 7:15:00 PM 2.32 36.176 0.764 8.89 2.64 13.8
2/5/2021 7:30:00 PM 2.26 36.068 0.76 8.86 2.64 13.71
2/5/2021 7:45:00 PM 2.21 35.978 0.758 8.83 2.58 13.66
2/5/2021 8:00:00 PM 2.15 35.87 0.752 8.8 2.56 13.6
2/5/2021 8:15:00 PM 2.1 35.78 0.751 8.77 2.69 13.54
2/5/2021 8:30:00 PM 2.05 35.69 0.749 8.71 2.56 13.49
2/5/2021 8:45:00 PM 2.02 35.636 0.749 8.68 2.54 13.43
2/5/2021 9:00:00 PM 1.99 35.582 0.748 8.63 2.59 13.39
2/5/2021 9:15:00 PM 1.97 35.546 0.749 8.56 2.53 13.34
2/5/2021 9:30:00 PM 1.96 35.528 0.75 8.51 2.56 13.29
2/5/2021 9:45:00 PM 1.93 35.474 0.751 8.45 2.57 13.25
2/5/2021 10:00:00 PM 1.9 35.42 0.752 8.39 2.5 13.22
2/5/2021 10:15:00 PM 1.87 35.366 0.753 8.32 2.58 13.2
2/5/2021 10:30:00 PM 1.82 35.276 0.755 8.26 2.6 13.17
2/5/2021 10:45:00 PM 1.75 35.15 0.758 8.19 2.5 13.15
2/5/2021 11:00:00 PM 1.72 35.096 0.762 8.15 2.52 13.13
2/5/2021 11:15:00 PM 1.68 35.024 0.766 8.08 2.45 13.12
2/5/2021 11:30:00 PM 1.67 35.006 0.769 8.06 2.51 13.09
2/5/2021 11:45:00 PM 1.64 34.952 0.772 8.01 2.52 13.08
2/6/2021 12:00:00 AM 1.61 34.898 0.776 7.98 2.52 13.06
2/6/2021 12:15:00 AM 1.58 34.844 0.777 7.97 2.46 13.06
2/6/2021 12:30:00 AM 1.56 34.808 0.78 7.94 2.58 13.05
2/6/2021 12:45:00 AM 1.54 34.772 0.783 7.91 2.5 13.05
2/6/2021 1:00:00 AM 1.53 34.754 0.787 7.9 2.63 13.04
2/6/2021 1:15:00 AM 1.51 34.718 0.789 7.88 2.53 13.04
2/6/2021 1:30:00 AM 1.5 34.7 0.795 7.86 2.53 13.03
2/6/2021 1:45:00 AM 1.49 34.682 0.801 7.86 2.48 13.03
2/6/2021 2:00:00 AM 1.48 34.664 0.804 7.83 2.53 13.03
2/6/2021 2:15:00 AM 1.46 34.628 0.809 7.83 2.57 13.02
2/6/2021 2:30:00 AM 1.44 34.592 0.815 7.82 2.51 13.02
2/6/2021 2:45:00 AM 1.4 34.52 0.819 7.82 2.56 13.03
2/6/2021 3:00:00 AM 1.38 34.484 0.823 7.81 2.48 13.03
2/6/2021 3:15:00 AM 1.38 34.484 0.829 7.79 2.54 13.02
2/6/2021 3:30:00 AM 1.38 34.484 0.832 7.79 2.56 13.02
2/6/2021 3:45:00 AM 1.37 34.466 0.836 7.79 2.47 13.02
2/6/2021 4:00:00 AM 1.36 34.448 0.841 7.78 2.53 13.03
2/6/2021 4:15:00 AM 1.34 34.412 0.845 7.77 2.77 13.02
2/6/2021 4:30:00 AM 1.3 34.34 0.849 7.77 2.58 13.03
2/6/2021 4:45:00 AM 1.27 34.286 0.854 7.77 2.59 13.03
2/6/2021 5:00:00 AM 1.24 34.232 0.859 7.76 2.53 13.03
2/6/2021 5:15:00 AM 1.21 34.178 0.863 7.76 2.56 13.04
2/6/2021 5:30:00 AM 1.19 34.142 0.868 7.76 2.52 13.05
2/6/2021 5:45:00 AM 1.17 34.106 0.873 7.75 2.57 13.06
2/6/2021 6:00:00 AM 1.14 34.052 0.878 7.75 2.51 13.06
2/6/2021 6:15:00 AM 1.11 33.998 0.884 7.75 2.53 13.07
2/6/2021 6:30:00 AM 1.09 33.962 0.889 7.74 2.49 13.07
2/6/2021 6:45:00 AM 1.06 33.908 0.893 7.74 2.54 13.09
2/6/2021 7:00:00 AM 1.02 33.836 0.897 7.74 2.51 13.1
2/6/2021 7:15:00 AM 0.99 33.782 0.9 7.74 2.58 13.11
2/6/2021 7:30:00 AM 0.97 33.746 0.904 7.74 2.56 13.16
2/6/2021 7:45:00 AM 0.93 33.674 0.907 7.75 2.54 13.23
2/6/2021 8:00:00 AM 0.91 33.638 0.912 7.77 2.57 13.36
2/6/2021 8:15:00 AM 0.89 33.602 0.915 7.79 2.6 13.51
2/6/2021 8:30:00 AM 0.87 33.566 0.919 7.82 2.59 13.69
2/6/2021 8:45:00 AM 0.87 33.566 0.919 7.85 2.61 13.91
2/6/2021 9:00:00 AM 0.88 33.584 0.921 7.89 2.67 14.13
2/6/2021 9:15:00 AM 0.91 33.638 0.92 7.94 2.59 14.36
2/6/2021 9:30:00 AM 0.95 33.71 0.919 7.99 2.58 14.59
2/6/2021 9:45:00 AM 1.03 33.854 0.913 8.05 2.65 14.83
2/6/2021 10:00:00 AM 1.14 34.052 0.907 8.11 2.61 15.05
2/6/2021 10:15:00 AM 1.26 34.268 0.902 8.17 2.6 15.22
2/6/2021 10:30:00 AM 1.34 34.412 0.897 8.23 2.62 15.36
2/6/2021 10:45:00 AM 1.45 34.61 0.895 8.29 2.66 15.48
2/6/2021 11:00:00 AM 1.56 34.808 0.892 8.36 2.55 15.62
2/6/2021 11:15:00 AM 1.69 35.042 0.894 8.42 2.62 15.73
2/6/2021 11:30:00 AM 1.81 35.258 0.901 8.48 2.6 15.83
2/6/2021 11:45:00 AM 1.92 35.456 0.909 8.54 2.54 15.91
2/6/2021 12:00:00 PM 2.02 35.636 0.908 8.59 2.54 15.98
2/6/2021 12:15:00 PM 2.09 35.762 0.908 8.63 2.53 16.03
2/6/2021 12:30:00 PM 2.17 35.906 0.913 8.66 2.58 16.09
2/6/2021 12:45:00 PM 2.25 36.05 0.914 8.72 2.57 16.13
2/6/2021 1:00:00 PM 2.31 36.158 0.915 8.76 2.59 16.16
2/6/2021 1:15:00 PM 2.37 36.266 0.917 8.79 2.58 16.18
2/6/2021 1:30:00 PM 2.45 36.41 0.917 8.82 2.53 16.2
2/6/2021 1:45:00 PM 2.55 36.59 0.916 8.86 2.55 16.22
2/6/2021 2:00:00 PM 2.62 36.716 0.916 8.89 2.52 16.24
2/6/2021 2:15:00 PM 2.68 36.824 0.915 8.92 2.57 16.24
2/6/2021 2:30:00 PM 2.72 36.896 0.914 8.95 2.54 16.23
2/6/2021 2:45:00 PM 2.76 36.968 0.912 8.97 2.52 16.21
2/6/2021 3:00:00 PM 2.78 37.004 0.911 9 2.64 16.19
2/6/2021 3:15:00 PM 2.79 37.022 0.909 9.02 2.55 16.16
2/6/2021 3:30:00 PM 2.78 37.004 0.909 9.05 2.56 16.12
2/6/2021 3:45:00 PM 2.76 36.968 0.909 9.06 2.52 16.06
2/6/2021 4:00:00 PM 2.72 36.896 0.908 9.08 2.56 16
2/6/2021 4:15:00 PM 2.64 36.752 0.904 9.08 2.6 15.9
2/6/2021 4:30:00 PM 2.59 36.662 0.902 9.09 2.61 15.81
2/6/2021 4:45:00 PM 2.53 36.554 0.899 9.09 2.61 15.69
2/6/2021 5:00:00 PM 2.46 36.428 0.892 9.09 2.64 15.53
2/6/2021 5:15:00 PM 2.41 36.338 0.888 9.07 2.62 15.35
2/6/2021 5:30:00 PM 2.33 36.194 0.881 9.05 2.65 15.15
2/6/2021 5:45:00 PM 2.26 36.068 0.876 9.02 2.57 14.93
2/6/2021 6:00:00 PM 2.2 35.96 0.871 9 2.62 14.73
2/6/2021 6:15:00 PM 2.13 35.834 0.867 8.96 2.58 14.54
2/6/2021 6:30:00 PM 2.06 35.708 0.864 8.93 2.66 14.39
2/6/2021 6:45:00 PM 1.99 35.582 0.861 8.89 2.63 14.27
2/6/2021 7:00:00 PM 1.91 35.438 0.86 8.86 2.63 14.17
2/6/2021 7:15:00 PM 1.82 35.276 0.858 8.83 2.56 14.1
2/6/2021 7:30:00 PM 1.73 35.114 0.86 8.8 2.6 14.05
2/6/2021 7:45:00 PM 1.63 34.934 0.86 8.77 2.66 14
2/6/2021 8:00:00 PM 1.54 34.772 0.861 8.74 2.64 13.96
2/6/2021 8:15:00 PM 1.46 34.628 0.867 8.71 2.66 13.93
2/6/2021 8:30:00 PM 1.39 34.502 0.875 8.68 2.65 13.89
2/6/2021 8:45:00 PM 1.31 34.358 0.882 8.65 2.72 13.86
2/6/2021 9:00:00 PM 1.24 34.232 0.884 8.6 2.63 13.83
2/6/2021 9:15:00 PM 1.15 34.07 0.883 8.55 2.69 13.79
2/6/2021 9:30:00 PM 1.07 33.926 0.882 8.49 2.66 13.76
2/6/2021 9:45:00 PM 1 33.8 0.882 8.43 2.64 13.74
2/6/2021 10:00:00 PM 0.94 33.692 0.88 8.37 2.64 13.71
2/6/2021 10:15:00 PM 0.88 33.584 0.881 8.31 2.72 13.69
2/6/2021 10:30:00 PM 0.82 33.476 0.878 8.25 2.6 13.67
2/6/2021 10:45:00 PM 0.76 33.368 0.875 8.19 2.61 13.66
2/6/2021 11:00:00 PM 0.7 33.26 0.872 8.13 2.61 13.64
2/6/2021 11:15:00 PM 0.64 33.152 0.868 8.09 2.58 13.63
2/6/2021 11:30:00 PM 0.59 33.062 0.865 8.04 2.58 13.62
2/6/2021 11:45:00 PM 0.54 32.972 0.864 8.01 2.57 13.61
2/7/2021 12:00:00 AM 0.49 32.882 0.862 7.98 2.62 13.61
2/7/2021 12:15:00 AM 0.45 32.81 0.859 7.95 2.59 13.6
2/7/2021 12:30:00 AM 0.4 32.72 0.856 7.93 2.59 13.6
2/7/2021 12:45:00 AM 0.35 32.63 0.853 7.91 2.64 13.6
2/7/2021 1:00:00 AM 0.31 32.558 0.847 7.89 2.64 13.6
2/7/2021 1:15:00 AM 0.27 32.486 0.846 7.87 2.6 13.61
2/7/2021 1:30:00 AM 0.24 32.432 0.842 7.86 2.61 13.61
2/7/2021 1:45:00 AM 0.21 32.378 0.839 7.85 2.6 13.62
2/7/2021 2:00:00 AM 0.18 32.324 0.838 7.82 2.62 13.62
2/7/2021 2:15:00 AM 0.16 32.288 0.837 7.83 3.78 13.62
2/7/2021 2:30:00 AM 0.14 32.252 0.836 7.82 2.58 13.63
2/7/2021 2:45:00 AM 0.13 32.234 0.837 7.81 2.58 13.62
2/7/2021 3:00:00 AM 0.12 32.216 0.839 7.8 2.55 13.62
2/7/2021 3:15:00 AM 0.12 32.216 0.839 7.79 2.56 13.62
2/7/2021 3:30:00 AM 0.12 32.216 0.84 7.78 2.53 13.62
2/7/2021 3:45:00 AM 0.12 32.216 0.839 7.78 2.56 13.62
2/7/2021 4:00:00 AM 0.12 32.216 0.84 7.78 2.56 13.61
2/7/2021 4:15:00 AM 0.12 32.216 0.839 7.77 3.18 13.61
2/7/2021 4:30:00 AM 0.12 32.216 0.837 7.76 2.56 13.6
2/7/2021 4:45:00 AM 0.12 32.216 0.838 7.75 2.52 13.6
2/7/2021 5:00:00 AM 0.13 32.234 0.837 7.76 2.58 13.59
2/7/2021 5:15:00 AM 0.13 32.234 0.837 7.75 2.53 13.59
2/7/2021 5:30:00 AM 0.14 32.252 0.838 7.73 2.5 13.58
2/7/2021 5:45:00 AM 0.15 32.27 0.838 7.74 2.48 13.57
2/7/2021 6:00:00 AM 0.15 32.27 0.839 7.74 2.51 13.56
2/7/2021 6:15:00 AM 0.16 32.288 0.841 7.74 2.57 13.55
2/7/2021 6:30:00 AM 0.16 32.288 0.842 7.73 2.52 13.55
2/7/2021 6:45:00 AM 0.16 32.288 0.842 7.73 2.5 13.55
2/7/2021 7:00:00 AM 0.17 32.306 0.841 7.71 2.57 13.54
2/7/2021 7:15:00 AM 0.17 32.306 0.842 7.72 2.56 13.54
2/7/2021 7:30:00 AM 0.17 32.306 0.842 7.73 2.56 13.55
2/7/2021 7:45:00 AM 0.17 32.306 0.841 7.73 2.53 13.58
2/7/2021 8:00:00 AM 0.16 32.288 0.841 7.73 2.53 13.64
2/7/2021 8:15:00 AM 0.15 32.27 0.841 7.76 2.53 13.73
2/7/2021 8:30:00 AM 0.12 32.216 0.844 7.77 2.61 13.81
2/7/2021 8:45:00 AM 0.11 32.198 0.846 7.79 2.6 13.93
2/7/2021 9:00:00 AM 0.12 32.216 0.848 7.8 2.54 14.11
2/7/2021 9:15:00 AM 0.14 32.252 0.85 7.85 2.66 14.34
2/7/2021 9:30:00 AM 0.21 32.378 0.85 7.9 2.57 14.63
2/7/2021 9:45:00 AM 0.25 32.45 0.854 7.96 2.6 14.88
2/7/2021 10:00:00 AM 0.32 32.576 0.851 8.02 2.61 15.12
2/7/2021 10:15:00 AM 0.36 32.648 0.849 8.08 2.53 15.3
2/7/2021 10:30:00 AM 0.41 32.738 0.85 8.14 2.54 15.47
2/7/2021 10:45:00 AM 0.47 32.846 0.849 8.2 2.53 15.62
2/7/2021 11:00:00 AM 0.55 32.99 0.848 8.27 2.56 15.77
2/7/2021 11:15:00 AM 0.61 33.098 0.844 8.33 2.62 15.9
2/7/2021 11:30:00 AM 0.71 33.278 0.842 8.4 2.56 16.03
2/7/2021 11:45:00 AM 0.77 33.386 0.843 8.46 2.57 16.14
2/7/2021 12:00:00 PM 0.85 33.53 0.838 8.52 2.52 16.24
2/7/2021 12:15:00 PM 0.91 33.638 0.838 8.57 2.58 16.33
2/7/2021 12:30:00 PM 0.94 33.692 0.839 8.62 2.59 16.39
2/7/2021 12:45:00 PM 0.95 33.71 0.839 8.66 2.56 16.46
2/7/2021 1:00:00 PM 1 33.8 0.839 8.71 2.54 16.53
2/7/2021 1:15:00 PM 1.14 34.052 0.836 8.75 2.48 16.61
2/7/2021 1:30:00 PM 1.27 34.286 0.834 8.79 2.55 16.67
2/7/2021 1:45:00 PM 1.4 34.52 0.832 8.83 2.53 16.71
2/7/2021 2:00:00 PM 1.5 34.7 0.83 8.86 2.49 16.73
2/7/2021 2:15:00 PM 1.61 34.898 0.829 8.9 2.44 16.76
2/7/2021 2:30:00 PM 1.69 35.042 0.825 8.93 2.5 16.78
2/7/2021 2:45:00 PM 1.74 35.132 0.823 8.96 2.51 16.77
2/7/2021 3:00:00 PM 1.77 35.186 0.818 8.98 2.55 16.77
2/7/2021 3:15:00 PM 1.75 35.15 0.814 9.02 2.54 16.73
2/7/2021 3:30:00 PM 1.67 35.006 0.809 9.03 2.54 16.67
2/7/2021 3:45:00 PM 1.6 34.88 0.804 9.05 2.54 16.61
2/7/2021 4:00:00 PM 1.56 34.808 0.8 9.07 2.58 16.56
2/7/2021 4:15:00 PM 1.5 34.7 0.796 9.09 2.8 16.51
2/7/2021 4:30:00 PM 1.44 34.592 0.793 9.1 2.62 16.43
2/7/2021 4:45:00 PM 1.37 34.466 0.789 9.11 2.68 16.33
2/7/2021 5:00:00 PM 1.3 34.34 0.786 9.11 2.59 16.18
2/7/2021 5:15:00 PM 1.23 34.214 0.781 9.11 2.65 15.99
2/7/2021 5:30:00 PM 1.16 34.088 0.776 9.09 2.62 15.78
2/7/2021 5:45:00 PM 1.11 33.998 0.772 9.07 2.65 15.56
2/7/2021 6:00:00 PM 1.06 33.908 0.765 9.04 2.65 15.35
2/7/2021 6:15:00 PM 1 33.8 0.757 9.01 2.73 15.15
2/7/2021 6:30:00 PM 0.95 33.71 0.751 8.99 2.71 15
2/7/2021 6:45:00 PM 0.91 33.638 0.742 8.96 2.66 14.87
2/7/2021 7:00:00 PM 0.86 33.548 0.734 8.93 2.7 14.76
2/7/2021 7:15:00 PM 0.81 33.458 0.728 8.9 2.64 14.67
2/7/2021 7:30:00 PM 0.76 33.368 0.723 8.87 2.66 14.59
2/7/2021 7:45:00 PM 0.7 33.26 0.719 8.83 2.62 14.52
2/7/2021 8:00:00 PM 0.64 33.152 0.716 8.79 2.67 14.46
2/7/2021 8:15:00 PM 0.57 33.026 0.715 8.75 2.63 14.41
2/7/2021 8:30:00 PM 0.5 32.9 0.717 8.71 2.6 14.36
2/7/2021 8:45:00 PM 0.43 32.774 0.718 8.67 2.67 14.31
2/7/2021 9:00:00 PM 0.35 32.63 0.721 8.61 2.55 14.27
2/7/2021 9:15:00 PM 0.28 32.504 0.724 8.56 2.58 14.24
2/7/2021 9:30:00 PM 0.22 32.396 0.728 8.5 2.69 14.2
2/7/2021 9:45:00 PM 0.16 32.288 0.732 8.45 2.58 14.17
2/7/2021 10:00:00 PM 0.1 32.18 0.736 8.39 2.6 14.15
2/7/2021 10:15:00 PM 0.04 32.072 0.74 8.33 2.63 14.12
2/7/2021 10:30:00 PM -0.01 31.982 0.743 8.27 2.63 14.1
2/7/2021 10:45:00 PM -0.06 31.892 0.747 8.22 2.61 14.07
2/7/2021 11:00:00 PM -0.09 31.838 0.75 8.18 2.6 14.06
2/7/2021 11:15:00 PM -0.11 31.802 0.753 8.13 2.62 14.05
2/7/2021 11:30:00 PM -0.1 31.82 0.755 8.11 2.62 14.03
2/7/2021 11:45:00 PM -0.08 31.856 0.756 8.07 2.67 14.02
2/8/2021 12:00:00 AM -0.08 31.856 0.756 8.05 2.59 14.02
2/8/2021 12:15:00 AM -0.07 31.874 0.757 8.04 2.66 14.01
2/8/2021 12:30:00 AM -0.07 31.874 0.757 8.01 2.65 14
2/8/2021 12:45:00 AM -0.07 31.874 0.755 8 2.85 13.99
2/8/2021 1:00:00 AM -0.07 31.874 0.753 7.98 2.92 13.98
2/8/2021 1:15:00 AM -0.07 31.874 0.751 7.96 3.08 13.97
2/8/2021 1:30:00 AM -0.07 31.874 0.75 7.95 3.02 13.97
2/8/2021 1:45:00 AM -0.07 31.874 0.749 7.93 3.23 13.96
2/8/2021 2:00:00 AM -0.07 31.874 0.747 7.92 3.93 13.95
2/8/2021 2:15:00 AM -0.06 31.892 0.745 7.91 5.24 13.95
2/8/2021 2:30:00 AM -0.06 31.892 0.744 7.89 3.65 13.95
2/8/2021 2:45:00 AM -0.06 31.892 0.742 7.88 3.92 13.95
2/8/2021 3:00:00 AM -0.07 31.874 0.741 7.87 4.16 13.95
2/8/2021 3:15:00 AM -0.06 31.892 0.739 7.86 2.97 13.95
2/8/2021 3:30:00 AM -0.06 31.892 0.739 7.85 3.32 13.94
2/8/2021 3:45:00 AM -0.06 31.892 0.738 7.84 2.87 13.95
2/8/2021 4:00:00 AM -0.07 31.874 0.738 7.84 3.04 13.94
2/8/2021 4:15:00 AM -0.07 31.874 0.737 7.83 3.16 13.95
2/8/2021 4:30:00 AM -0.07 31.874 0.736 7.82 2.82 13.95
2/8/2021 4:45:00 AM -0.07 31.874 0.735 7.82 2.75 13.94
2/8/2021 5:00:00 AM -0.07 31.874 0.733 7.81 2.76 13.94
2/8/2021 5:15:00 AM -0.07 31.874 0.731 7.79 3.08 13.94
2/8/2021 5:30:00 AM -0.07 31.874 0.73 7.79 3.29 13.94
2/8/2021 5:45:00 AM -0.07 31.874 0.727 7.79 2.94 13.93
2/8/2021 6:00:00 AM -0.07 31.874 0.726 7.77 2.61 13.92
2/8/2021 6:15:00 AM -0.07 31.874 0.726 7.77 2.67 13.92
2/8/2021 6:30:00 AM -0.07 31.874 0.726 7.76 2.91 13.9
2/8/2021 6:45:00 AM -0.07 31.874 0.725 7.76 2.57 13.9
2/8/2021 7:00:00 AM -0.07 31.874 0.724 7.76 2.53 13.89
2/8/2021 7:15:00 AM -0.07 31.874 0.726 7.76 2.59 13.89
2/8/2021 7:30:00 AM -0.07 31.874 0.727 7.75 2.58 13.91
2/8/2021 7:45:00 AM -0.07 31.874 0.728 7.76 2.52 13.96
2/8/2021 8:00:00 AM -0.07 31.874 0.729 7.76 2.49 14.04
2/8/2021 8:15:00 AM -0.07 31.874 0.73 7.78 2.68 14.13
2/8/2021 8:30:00 AM -0.06 31.892 0.73 7.8 2.51 14.27
2/8/2021 8:45:00 AM -0.05 31.91 0.729 7.81 2.53 14.46
2/8/2021 9:00:00 AM -0.05 31.91 0.728 7.84 2.53 14.65
2/8/2021 9:15:00 AM -0.05 31.91 0.727 7.87 2.52 14.87
2/8/2021 9:30:00 AM -0.03 31.946 0.721 7.9 2.6 15.1
2/8/2021 9:45:00 AM -0.03 31.946 0.719 7.94 2.58 15.32
2/8/2021 10:00:00 AM -0.03 31.946 0.714 8 2.58 15.55
2/8/2021 10:15:00 AM -0.03 31.946 0.716 8.06 2.57 15.77
2/8/2021 10:30:00 AM -0.03 31.946 0.719 8.12 2.57 16
2/8/2021 10:45:00 AM -0.03 31.946 0.724 8.19 2.59 16.23
2/8/2021 11:00:00 AM -0.02 31.964 0.727 8.26 2.61 16.47
2/8/2021 11:15:00 AM -0.02 31.964 0.727 8.33 2.76 16.7
2/8/2021 11:30:00 AM -0.02 31.964 0.73 8.42 3 16.92
2/8/2021 11:45:00 AM -0.02 31.964 0.731 8.48 2.82 17.12
2/8/2021 12:00:00 PM -0.01 31.982 0.735 8.55 2.81 17.26
2/8/2021 12:15:00 PM -0.01 31.982 0.735 8.6 2.94 17.36
2/8/2021 12:30:00 PM 0 32 0.736 8.65 2.63 17.46
2/8/2021 12:45:00 PM 0.01 32.018 0.739 8.68 3.09 17.54
2/8/2021 1:00:00 PM 0.04 32.072 0.743 8.73 2.57 17.59
2/8/2021 1:15:00 PM 0.09 32.162 0.742 8.76 4.84 17.59
2/8/2021 1:30:00 PM 0.15 32.27 0.738 8.79 4.7 17.61
2/8/2021 1:45:00 PM 0.21 32.378 0.734 8.83 4.77 17.62
2/8/2021 2:00:00 PM 0.28 32.504 0.727 8.88 4.8 17.59
2/8/2021 2:15:00 PM 0.36 32.648 0.721 8.92 4.85 17.57
2/8/2021 2:30:00 PM 0.43 32.774 0.713 8.94 4.88 17.5
2/8/2021 2:45:00 PM 0.5 32.9 0.708 8.96 4.81 17.43
2/8/2021 3:00:00 PM 0.6 33.08 0.706 8.98 4.84 17.37
2/8/2021 3:15:00 PM 0.64 33.152 0.706 9.01 4.8 17.33
2/8/2021 3:30:00 PM 0.68 33.224 0.706 9.02 4.77 17.29
2/8/2021 3:45:00 PM 0.68 33.224 0.709 9.04 4.97 17.24
2/8/2021 4:00:00 PM 0.68 33.224 0.709 9.06 4.8 17.18
2/8/2021 4:15:00 PM 0.65 33.17 0.707 9.06 4.84 17.11
2/8/2021 4:30:00 PM 0.6 33.08 0.708 9.08 4.83 17.03
2/8/2021 4:45:00 PM 0.55 32.99 0.708 9.08 4.96 16.94
2/8/2021 5:00:00 PM 0.48 32.864 0.708 9.08 4.94 16.82
2/8/2021 5:15:00 PM 0.42 32.756 0.708 9.07 4.8 16.66
2/8/2021 5:30:00 PM 0.36 32.648 0.709 9.06 4.91 16.48
2/8/2021 5:45:00 PM 0.3 32.54 0.708 9.04 5.25 16.27
2/8/2021 6:00:00 PM 0.25 32.45 0.707 9.03 5.31 16.07
2/8/2021 6:15:00 PM 0.2 32.36 0.705 9.01 5.28 15.88
2/8/2021 6:30:00 PM 0.16 32.288 0.702 8.99 5.25 15.73
2/8/2021 6:45:00 PM 0.13 32.234 0.698 8.97 5.89 15.58
2/8/2021 7:00:00 PM 0.09 32.162 0.692 8.95 5.76 15.46
2/8/2021 7:15:00 PM 0.06 32.108 0.685 8.92 5.85 15.36
2/8/2021 7:30:00 PM 0.03 32.054 0.678 8.9 5.76 15.27
2/8/2021 7:45:00 PM 0 32 0.669 8.88 5.91 15.18
2/8/2021 8:00:00 PM -0.04 31.928 0.661 8.85 6.02 15.09
2/8/2021 8:15:00 PM -0.08 31.856 0.655 8.81 6.01 15.02
2/8/2021 8:30:00 PM -0.11 31.802 0.65 8.77 5.84 14.94
2/8/2021 8:45:00 PM -0.1 31.82 0.647 8.73 5.76 14.88
2/8/2021 9:00:00 PM -0.08 31.856 0.646 8.67 5.74 14.8
2/8/2021 9:15:00 PM -0.08 31.856 0.646 8.61 5.81 14.74
2/8/2021 9:30:00 PM -0.07 31.874 0.648 8.56 5.77 14.68
2/8/2021 9:45:00 PM -0.07 31.874 0.649 8.5 5.78 14.6
2/8/2021 10:00:00 PM -0.07 31.874 0.653 8.43 5.78 14.54
2/8/2021 10:15:00 PM -0.07 31.874 0.657 8.37 5.81 14.48
2/8/2021 10:30:00 PM -0.07 31.874 0.662 8.31 5.74 14.43
2/8/2021 10:45:00 PM -0.07 31.874 0.667 8.24 5.82 14.38
2/8/2021 11:00:00 PM -0.07 31.874 0.673 8.19 5.75 14.32
2/8/2021 11:15:00 PM -0.07 31.874 0.68 8.14 5.77 14.27
2/8/2021 11:30:00 PM -0.07 31.874 0.684 8.09 5.74 14.24
2/8/2021 11:45:00 PM -0.07 31.874 0.689 8.05 5.8 14.2
2/9/2021 12:00:00 AM -0.07 31.874 0.694 8.03 5.77 14.16
2/9/2021 12:15:00 AM -0.07 31.874 0.698 8 5.79 14.12
2/9/2021 12:30:00 AM -0.07 31.874 0.7 7.98 5.78 14.1
2/9/2021 12:45:00 AM -0.07 31.874 0.703 7.95 5.79 14.08
2/9/2021 1:00:00 AM -0.07 31.874 0.704 7.94 5.81 14.05
2/9/2021 1:15:00 AM -0.07 31.874 0.707 7.92 5.86 14.03
2/9/2021 1:30:00 AM -0.07 31.874 0.707 7.91 5.82 14
2/9/2021 1:45:00 AM -0.07 31.874 0.71 7.9 5.81 13.99
2/9/2021 2:00:00 AM -0.07 31.874 0.711 7.9 5.81 13.97
2/9/2021 2:15:00 AM -0.07 31.874 0.712 7.88 5.88 13.95
2/9/2021 2:30:00 AM -0.07 31.874 0.712 7.87 5.81 13.93
2/9/2021 2:45:00 AM -0.07 31.874 0.712 7.86 5.8 13.91
2/9/2021 3:00:00 AM -0.07 31.874 0.712 7.86 5.76 13.89
2/9/2021 3:15:00 AM -0.07 31.874 0.711 7.85 5.69 13.87
2/9/2021 3:30:00 AM -0.07 31.874 0.708 7.84 5.57 13.85
2/9/2021 3:45:00 AM -0.07 31.874 0.706 7.83 5.2 13.84
2/9/2021 4:00:00 AM -0.07 31.874 0.703 7.82 2.61 13.82
2/9/2021 4:15:00 AM -0.07 31.874 0.702 7.82 2.73 13.81
2/9/2021 4:30:00 AM -0.07 31.874 0.699 7.81 2.55 13.8
2/9/2021 4:45:00 AM -0.07 31.874 0.699 7.81 2.54 13.79
2/9/2021 5:00:00 AM -0.07 31.874 0.697 7.8 2.51 13.78
2/9/2021 5:15:00 AM -0.07 31.874 0.696 7.79 2.56 13.77
2/9/2021 5:30:00 AM -0.07 31.874 0.693 7.78 2.53 13.76
2/9/2021 5:45:00 AM -0.07 31.874 0.691 7.78 2.54 13.75
2/9/2021 6:00:00 AM -0.07 31.874 0.688 7.78 2.57 13.74
2/9/2021 6:15:00 AM -0.07 31.874 0.685 7.76 2.5 13.73
2/9/2021 6:30:00 AM -0.07 31.874 0.681 7.76 2.5 13.72
2/9/2021 6:45:00 AM -0.07 31.874 0.677 7.74 2.46 13.71
2/9/2021 7:00:00 AM -0.07 31.874 0.673 7.73 2.45 13.7
2/9/2021 7:15:00 AM -0.07 31.874 0.668 7.73 2.44 13.7
2/9/2021 7:30:00 AM -0.07 31.874 0.664 7.72 2.41 13.7
2/9/2021 7:45:00 AM -0.06 31.892 0.66 7.73 2.4 13.77
2/9/2021 8:00:00 AM -0.06 31.892 0.654 7.75 2.4 13.85
2/9/2021 8:15:00 AM -0.06 31.892 0.649 7.77 2.46 14
2/9/2021 8:30:00 AM -0.05 31.91 0.643 7.81 2.39 14.17
2/9/2021 8:45:00 AM -0.04 31.928 0.637 7.85 2.4 14.37
2/9/2021 9:00:00 AM -0.01 31.982 0.632 7.86 2.36 14.59
2/9/2021 9:15:00 AM 0.04 32.072 0.627 7.89 2.37 14.83
2/9/2021 9:30:00 AM 0.09 32.162 0.621 7.98 2.34 15.08
2/9/2021 9:45:00 AM 0.15 32.27 0.615 8.05 2.32 15.32
2/9/2021 10:00:00 AM 0.19 32.342 0.609 8.12 2.31 15.52
2/9/2021 10:15:00 AM 0.19 32.342 0.601 8.18 2.31 15.65
2/9/2021 10:30:00 AM 0.22 32.396 0.595 8.23 2.33 15.74
2/9/2021 10:45:00 AM 0.26 32.468 0.59 8.28 2.28 15.81
2/9/2021 11:00:00 AM 0.31 32.558 0.585 8.33 2.3 15.91
2/9/2021 11:15:00 AM 0.36 32.648 0.582 8.39 2.27 16.01
2/9/2021 11:30:00 AM 0.41 32.738 0.578 8.43 2.3 16.1
2/9/2021 11:45:00 AM 0.46 32.828 0.575 8.49 2.3 16.22
2/9/2021 12:00:00 PM 0.56 33.008 0.572 8.55 2.33 16.35
2/9/2021 12:15:00 PM 0.67 33.206 0.568 8.6 2.31 16.47
2/9/2021 12:30:00 PM 0.77 33.386 0.564 8.66 2.28 16.6
2/9/2021 12:45:00 PM 0.85 33.53 0.56 8.71 2.27 16.7
2/9/2021 1:00:00 PM 0.9 33.62 0.557 8.76 2.3 16.79
2/9/2021 1:15:00 PM 0.98 33.764 0.555 8.81 2.25 16.87
2/9/2021 1:30:00 PM 1.08 33.944 0.553 8.85 2.33 16.93
2/9/2021 1:45:00 PM 1.14 34.052 0.552 8.89 2.3 16.97
2/9/2021 2:00:00 PM 1.16 34.088 0.55 8.92 2.31 16.99
2/9/2021 2:15:00 PM 1.17 34.106 0.549 8.95 2.24 16.94
2/9/2021 2:30:00 PM 1.16 34.088 0.548 8.97 2.3 16.92
2/9/2021 2:45:00 PM 1.18 34.124 0.548 8.99 2.2 16.88
2/9/2021 3:00:00 PM 1.2 34.16 0.547 9.01 2.32 16.86
2/9/2021 3:15:00 PM 1.21 34.178 0.545 9.03 2.27 16.84
2/9/2021 3:30:00 PM 1.22 34.196 0.546 9.06 2.21 16.84
2/9/2021 3:45:00 PM 1.24 34.232 0.545 9.07 2.25 16.83
2/9/2021 4:00:00 PM 1.24 34.232 0.545 9.09 2.25 16.79
2/9/2021 4:15:00 PM 1.24 34.232 0.547 9.11 2.29 16.76
2/9/2021 4:30:00 PM 1.24 34.232 0.547 9.13 2.26 16.69
2/9/2021 4:45:00 PM 1.24 34.232 0.548 9.13 2.21 16.61
2/9/2021 5:00:00 PM 1.23 34.214 0.548 9.14 2.26 16.49
2/9/2021 5:15:00 PM 1.22 34.196 0.549 9.14 2.23 16.31
2/9/2021 5:30:00 PM 1.21 34.178 0.55 9.13 2.29 16.1
2/9/2021 5:45:00 PM 1.2 34.16 0.549 9.11 2.3 15.88
2/9/2021 6:00:00 PM 1.19 34.142 0.549 9.08 2.27 15.62
2/9/2021 6:15:00 PM 1.19 34.142 0.548 9.05 2.3 15.4
2/9/2021 6:30:00 PM 1.18 34.124 0.549 9.02 2.39 15.19
2/9/2021 6:45:00 PM 1.18 34.124 0.549 8.99 2.32 15.01
2/9/2021 7:00:00 PM 1.18 34.124 0.55 8.96 2.35 14.87
2/9/2021 7:15:00 PM 1.19 34.142 0.549 8.94 2.32 14.74
2/9/2021 7:30:00 PM 1.2 34.16 0.548 8.91 2.32 14.63
2/9/2021 7:45:00 PM 1.22 34.196 0.546 8.89 2.32 14.53
2/9/2021 8:00:00 PM 1.23 34.214 0.546 8.86 2.38 14.44
2/9/2021 8:15:00 PM 1.24 34.232 0.544 8.84 2.33 14.36
2/9/2021 8:30:00 PM 1.25 34.25 0.543 8.81 2.36 14.28
2/9/2021 8:45:00 PM 1.24 34.232 0.541 8.77 2.42 14.2
2/9/2021 9:00:00 PM 1.24 34.232 0.539 8.72 2.37 14.13
2/9/2021 9:15:00 PM 1.22 34.196 0.537 8.68 2.42 14.07
2/9/2021 9:30:00 PM 1.22 34.196 0.535 8.63 2.43 14
2/9/2021 9:45:00 PM 1.2 34.16 0.533 8.57 2.37 13.93
2/9/2021 10:00:00 PM 1.19 34.142 0.53 8.52 2.42 13.89
2/9/2021 10:15:00 PM 1.17 34.106 0.527 8.45 2.36 13.83
2/9/2021 10:30:00 PM 1.15 34.07 0.525 8.39 2.34 13.79
2/9/2021 10:45:00 PM 1.14 34.052 0.523 8.33 2.4 13.75
2/9/2021 11:00:00 PM 1.12 34.016 0.521 8.27 2.35 13.71
2/9/2021 11:15:00 PM 1.1 33.98 0.521 8.21 2.33 13.67
2/9/2021 11:30:00 PM 1.09 33.962 0.52 8.14 2.35 13.63
2/9/2021 11:45:00 PM 1.07 33.926 0.52 8.1 2.38 13.6
2/10/2021 12:00:00 AM 1.04 33.872 0.52 8.06 2.36 13.57
2/10/2021 12:15:00 AM 1.03 33.854 0.521 8.02 2.39 13.54
2/10/2021 12:30:00 AM 1.01 33.818 0.521 8 2.31 13.52
2/10/2021 12:45:00 AM 1 33.8 0.52 7.95 2.36 13.5
2/10/2021 1:00:00 AM 0.98 33.764 0.521 7.94 2.38 13.48
2/10/2021 1:15:00 AM 0.97 33.746 0.52 7.92 2.37 13.48
2/10/2021 1:30:00 AM 0.95 33.71 0.52 7.9 2.33 13.46
2/10/2021 1:45:00 AM 0.93 33.674 0.519 7.88 2.32 13.45
2/10/2021 2:00:00 AM 0.93 33.674 0.519 7.88 2.35 13.45
2/10/2021 2:15:00 AM 0.92 33.656 0.52 7.86 2.34 13.43
2/10/2021 2:30:00 AM 0.92 33.656 0.521 7.85 2.39 13.42
2/10/2021 2:45:00 AM 0.92 33.656 0.522 7.83 2.38 13.41
2/10/2021 3:00:00 AM 0.92 33.656 0.522 7.83 2.42 13.4
2/10/2021 3:15:00 AM 0.92 33.656 0.522 7.82 2.41 13.39
2/10/2021 3:30:00 AM 0.92 33.656 0.522 7.81 2.4 13.38
2/10/2021 3:45:00 AM 0.92 33.656 0.522 7.81 2.34 13.38
2/10/2021 4:00:00 AM 0.93 33.674 0.522 7.81 2.34 13.36
2/10/2021 4:15:00 AM 0.92 33.656 0.522 7.79 2.35 13.35
2/10/2021 4:30:00 AM 0.92 33.656 0.523 7.8 2.41 13.35
2/10/2021 4:45:00 AM 0.91 33.638 0.522 7.79 2.34 13.35
2/10/2021 5:00:00 AM 0.9 33.62 0.523 7.77 2.34 13.34
2/10/2021 5:15:00 AM 0.89 33.602 0.523 7.78 2.34 13.33
2/10/2021 5:30:00 AM 0.88 33.584 0.524 7.77 2.37 13.34
2/10/2021 5:45:00 AM 0.88 33.584 0.524 7.77 2.29 13.33
2/10/2021 6:00:00 AM 0.86 33.548 0.525 7.76 2.34 13.33
2/10/2021 6:15:00 AM 0.85 33.53 0.525 7.76 2.36 13.32
2/10/2021 6:30:00 AM 0.83 33.494 0.524 7.76 2.32 13.33
2/10/2021 6:45:00 AM 0.81 33.458 0.525 7.76 2.35 13.34
2/10/2021 7:00:00 AM 0.8 33.44 0.525 7.75 2.71 13.34
2/10/2021 7:15:00 AM 0.78 33.404 0.526 7.75 2.41 13.35
2/10/2021 7:30:00 AM 0.76 33.368 0.527 7.74 2.37 13.37
2/10/2021 7:45:00 AM 0.75 33.35 0.527 7.76 2.32 13.42
2/10/2021 8:00:00 AM 0.75 33.35 0.529 7.76 2.3 13.52
2/10/2021 8:15:00 AM 0.76 33.368 0.529 7.79 2.32 13.68
2/10/2021 8:30:00 AM 0.78 33.404 0.53 7.82 2.29 13.89
2/10/2021 8:45:00 AM 0.8 33.44 0.531 7.86 2.28 14.13
2/10/2021 9:00:00 AM 0.83 33.494 0.531 7.91 4.06 14.39
2/10/2021 9:15:00 AM 0.88 33.584 0.53 7.97 2.28 14.69
2/10/2021 9:30:00 AM 0.93 33.674 0.529 8.04 2.27 14.99
2/10/2021 9:45:00 AM 0.97 33.746 0.529 8.12 2.26 15.27
2/10/2021 10:00:00 AM 1.05 33.89 0.528 8.19 2.32 15.53
2/10/2021 10:15:00 AM 1.24 34.232 0.527 8.28 2.28 15.78
2/10/2021 10:30:00 AM 1.32 34.376 0.526 8.37 2.27 16
2/10/2021 10:45:00 AM 1.33 34.394 0.526 8.44 2.26 16.15
2/10/2021 11:00:00 AM 1.4 34.52 0.527 8.51 2.26 16.29
2/10/2021 11:15:00 AM 1.62 34.916 0.526 8.57 2.34 16.44
2/10/2021 11:30:00 AM 1.61 34.898 0.526 8.63 2.27 16.54
2/10/2021 11:45:00 AM 1.72 35.096 0.525 8.68 2.23 16.65
2/10/2021 12:00:00 PM 1.8 35.24 0.524 8.73 2.29 16.76
2/10/2021 12:15:00 PM 1.85 35.33 0.523 8.78 2.26 16.85
2/10/2021 12:30:00 PM 1.94 35.492 0.521 8.83 2.24 16.94
2/10/2021 12:45:00 PM 2 35.6 0.521 8.87 2.23 17.01
2/10/2021 1:00:00 PM 2.01 35.618 0.52 8.91 2.26 17.07
2/10/2021 1:15:00 PM 2.07 35.726 0.52 8.95 2.29 17.12
2/10/2021 1:30:00 PM 2.08 35.744 0.519 8.98 2.28 17.15
2/10/2021 1:45:00 PM 2.11 35.798 0.518 9 2.28 17.19
2/10/2021 2:00:00 PM 2.13 35.834 0.518 9.04 2.32 17.21
2/10/2021 2:15:00 PM 2.16 35.888 0.517 9.07 2.25 17.23
2/10/2021 2:30:00 PM 2.17 35.906 0.516 9.09 2.24 17.24
2/10/2021 2:45:00 PM 2.18 35.924 0.516 9.13 2.25 17.23
2/10/2021 3:00:00 PM 2.18 35.924 0.514 9.14 2.29 17.2
2/10/2021 3:15:00 PM 2.17 35.906 0.513 9.16 2.3 17.14
2/10/2021 3:30:00 PM 2.17 35.906 0.512 9.19 2.29 17.1
2/10/2021 3:45:00 PM 2.16 35.888 0.511 9.2 2.31 17.03
2/10/2021 4:00:00 PM 2.16 35.888 0.512 9.21 2.3 16.95
2/10/2021 4:15:00 PM 2.14 35.852 0.513 9.23 2.3 16.83
2/10/2021 4:30:00 PM 2.1 35.78 0.512 9.22 2.3 16.67
2/10/2021 4:45:00 PM 2.08 35.744 0.513 9.22 2.33 16.51
2/10/2021 5:00:00 PM 2.06 35.708 0.514 9.23 2.29 16.33
2/10/2021 5:15:00 PM 2.03 35.654 0.514 9.21 2.32 16.14
2/10/2021 5:30:00 PM 2 35.6 0.515 9.2 2.3 15.94
2/10/2021 5:45:00 PM 1.96 35.528 0.515 9.17 2.44 15.69
2/10/2021 6:00:00 PM 1.91 35.438 0.516 9.15 2.34 15.44
2/10/2021 6:15:00 PM 1.88 35.384 0.518 9.12 2.38 15.21
2/10/2021 6:30:00 PM 1.82 35.276 0.52 9.1 2.31 15
2/10/2021 6:45:00 PM 1.73 35.114 0.521 9.06 2.32 14.82
2/10/2021 7:00:00 PM 1.65 34.97 0.523 9.03 2.3 14.66
2/10/2021 7:15:00 PM 1.57 34.826 0.525 9 2.32 14.54
2/10/2021 7:30:00 PM 1.53 34.754 0.526 8.98 2.44 14.44
2/10/2021 7:45:00 PM 1.44 34.592 0.527 8.95 2.37 14.35
2/10/2021 8:00:00 PM 1.31 34.358 0.526 8.93 2.33 14.27
2/10/2021 8:15:00 PM 1.23 34.214 0.526 8.9 2.31 14.2
2/10/2021 8:30:00 PM 1.15 34.07 0.525 8.87 2.38 14.14
2/10/2021 8:45:00 PM 1.08 33.944 0.525 8.84 2.43 14.09
2/10/2021 9:00:00 PM 1 33.8 0.526 8.8 2.35 14.04
2/10/2021 9:15:00 PM 0.92 33.656 0.525 8.76 2.38 13.99
2/10/2021 9:30:00 PM 0.86 33.548 0.526 8.71 2.35 13.94
2/10/2021 9:45:00 PM 0.77 33.386 0.527 8.67 2.36 13.9
2/10/2021 10:00:00 PM 0.68 33.224 0.527 8.62 2.42 13.86
2/10/2021 10:15:00 PM 0.58 33.044 0.527 8.56 2.34 13.83
2/10/2021 10:30:00 PM 0.48 32.864 0.527 8.51 2.35 13.8
2/10/2021 10:45:00 PM 0.34 32.612 0.527 8.45 2.34 13.78
2/10/2021 11:00:00 PM 0.28 32.504 0.527 8.39 2.54 13.77
2/10/2021 11:15:00 PM 0.23 32.414 0.529 8.33 2.37 13.76
2/10/2021 11:30:00 PM 0.21 32.378 0.53 8.27 2.31 13.75
2/10/2021 11:45:00 PM 0.21 32.378 0.531 8.21 2.37 13.74
2/11/2021 12:00:00 AM 0.22 32.396 0.532 8.16 2.3 13.73
2/11/2021 12:15:00 AM 0.23 32.414 0.534 8.11 2.33 13.72
2/11/2021 12:30:00 AM 0.22 32.396 0.536 8.06 2.31 13.7
2/11/2021 12:45:00 AM 0.22 32.396 0.537 8.03 2.34 13.69
2/11/2021 1:00:00 AM 0.2 32.36 0.538 8 2.38 13.67
2/11/2021 1:15:00 AM 0.17 32.306 0.54 7.97 2.32 13.67
2/11/2021 1:30:00 AM 0.15 32.27 0.542 7.95 2.31 13.67
2/11/2021 1:45:00 AM 0.12 32.216 0.543 7.93 2.36 13.67
2/11/2021 2:00:00 AM 0.1 32.18 0.546 7.91 2.36 13.67
2/11/2021 2:15:00 AM 0.08 32.144 0.548 7.89 2.38 13.68
2/11/2021 2:30:00 AM 0.08 32.144 0.55 7.88 2.39 13.68
2/11/2021 2:45:00 AM 0.07 32.126 0.553 7.87 2.62 13.67
2/11/2021 3:00:00 AM 0.06 32.108 0.556 7.86 2.41 13.68
2/11/2021 3:15:00 AM 0.07 32.126 0.562 7.85 2.33 13.68
2/11/2021 3:30:00 AM 0.06 32.108 0.565 7.84 2.34 13.68
2/11/2021 3:45:00 AM 0.07 32.126 0.569 7.83 2.34 13.67
2/11/2021 4:00:00 AM 0.07 32.126 0.572 7.83 2.37 13.66
2/11/2021 4:15:00 AM 0.08 32.144 0.574 7.82 2.41 13.66
2/11/2021 4:30:00 AM 0.09 32.162 0.576 7.82 2.34 13.65
2/11/2021 4:45:00 AM 0.1 32.18 0.579 7.81 2.34 13.64
2/11/2021 5:00:00 AM 0.11 32.198 0.58 7.81 2.35 13.64
2/11/2021 5:15:00 AM 0.13 32.234 0.584 7.8 2.33 13.63
2/11/2021 5:30:00 AM 0.14 32.252 0.585 7.8 2.38 13.61
2/11/2021 5:45:00 AM 0.16 32.288 0.586 7.79 2.45 13.6
2/11/2021 6:00:00 AM 0.18 32.324 0.587 7.79 2.32 13.59
2/11/2021 6:15:00 AM 0.2 32.36 0.587 7.79 2.38 13.58
2/11/2021 6:30:00 AM 0.21 32.378 0.587 7.78 2.35 13.57
2/11/2021 6:45:00 AM 0.23 32.414 0.588 7.78 2.39 13.56
2/11/2021 7:00:00 AM 0.25 32.45 0.587 7.78 2.39 13.55
2/11/2021 7:15:00 AM 0.26 32.468 0.586 7.77 2.4 13.55
2/11/2021 7:30:00 AM 0.28 32.504 0.586 7.77 2.45 13.57
2/11/2021 7:45:00 AM 0.3 32.54 0.586 7.78 2.44 13.61
2/11/2021 8:00:00 AM 0.32 32.576 0.585 7.8 2.37 13.73
2/11/2021 8:15:00 AM 0.34 32.612 0.584 7.82 2.45 13.86
2/11/2021 8:30:00 AM 0.38 32.684 0.583 7.85 2.41 14.03
2/11/2021 8:45:00 AM 0.39 32.702 0.581 7.88 2.49 14.23
2/11/2021 9:00:00 AM 0.43 32.774 0.579 7.92 2.6 14.41
2/11/2021 9:15:00 AM 0.47 32.846 0.577 7.94 2.4 14.61
2/11/2021 9:30:00 AM 0.52 32.936 0.575 8 2.37 14.8
2/11/2021 9:45:00 AM 0.59 33.062 0.572 8.05 2.41 15.04
2/11/2021 10:00:00 AM 0.67 33.206 0.568 8.13 2.44 15.3
2/11/2021 10:15:00 AM 0.72 33.296 0.564 8.19 2.37 15.51
2/11/2021 10:30:00 AM 0.78 33.404 0.561 8.27 2.33 15.71
2/11/2021 10:45:00 AM 0.84 33.512 0.558 8.33 2.33 15.89
2/11/2021 11:00:00 AM 0.87 33.566 0.556 8.41 2.32 16.01
2/11/2021 11:15:00 AM 0.95 33.71 0.555 8.47 2.34 16.17
2/11/2021 11:30:00 AM 1 33.8 0.553 8.52 2.31 16.28
2/11/2021 11:45:00 AM 1.06 33.908 0.551 8.58 2.3 16.41
2/11/2021 12:00:00 PM 1.11 33.998 0.55 8.64 2.37 16.51
2/11/2021 12:15:00 PM 1.16 34.088 0.55 8.67 2.37 16.59
2/11/2021 12:30:00 PM 1.16 34.088 0.549 8.72 2.75 16.65
2/11/2021 12:45:00 PM 1.2 34.16 0.549 8.76 2.37 16.72
2/11/2021 1:00:00 PM 1.23 34.214 0.548 8.8 2.37 16.76
2/11/2021 1:15:00 PM 1.27 34.286 0.547 8.83 2.41 16.82
2/11/2021 1:30:00 PM 1.33 34.394 0.547 8.86 2.45 16.9
2/11/2021 1:45:00 PM 1.38 34.484 0.544 8.91 2.35 16.96
2/11/2021 2:00:00 PM 1.44 34.592 0.542 8.94 2.38 17.03
2/11/2021 2:15:00 PM 1.49 34.682 0.539 8.98 2.33 17.09
2/11/2021 2:30:00 PM 1.55 34.79 0.536 9.02 2.35 17.14
2/11/2021 2:45:00 PM 1.59 34.862 0.532 9.05 2.38 17.17
2/11/2021 3:00:00 PM 1.62 34.916 0.529 9.07 2.34 17.19
2/11/2021 3:15:00 PM 1.64 34.952 0.526 9.11 2.29 17.18
2/11/2021 3:30:00 PM 1.66 34.988 0.522 9.13 2.3 17.16
2/11/2021 3:45:00 PM 1.66 34.988 0.519 9.16 2.54 17.13
2/11/2021 4:00:00 PM 1.66 34.988 0.518 9.18 2.33 17.09
2/11/2021 4:15:00 PM 1.66 34.988 0.515 9.19 2.35 17.02
2/11/2021 4:30:00 PM 1.64 34.952 0.513 9.2 2.42 16.94
2/11/2021 4:45:00 PM 1.62 34.916 0.511 9.21 2.38 16.82
2/11/2021 5:00:00 PM 1.6 34.88 0.509 9.22 2.37 16.68
2/11/2021 5:15:00 PM 1.56 34.808 0.507 9.21 2.37 16.48
2/11/2021 5:30:00 PM 1.53 34.754 0.505 9.2 2.43 16.25
2/11/2021 5:45:00 PM 1.49 34.682 0.504 9.18 2.43 15.99
2/11/2021 6:00:00 PM 1.46 34.628 0.503 9.15 2.42 15.72
2/11/2021 6:15:00 PM 1.43 34.574 0.502 9.12 2.5 15.46
2/11/2021 6:30:00 PM 1.39 34.502 0.502 9.07 2.45 15.24
2/11/2021 6:45:00 PM 1.36 34.448 0.502 9.04 2.43 15.04
2/11/2021 7:00:00 PM 1.32 34.376 0.503 9.01 2.38 14.89
2/11/2021 7:15:00 PM 1.28 34.304 0.502 8.98 2.37 14.76
2/11/2021 7:30:00 PM 1.26 34.268 0.503 8.95 2.38 14.65
2/11/2021 7:45:00 PM 1.24 34.232 0.503 8.92 2.4 14.55
2/11/2021 8:00:00 PM 1.22 34.196 0.502 8.89 2.45 14.48
2/11/2021 8:15:00 PM 1.18 34.124 0.502 8.87 2.43 14.41
2/11/2021 8:30:00 PM 1.15 34.07 0.501 8.84 2.44 14.35
2/11/2021 8:45:00 PM 1.11 33.998 0.502 8.81 2.43 14.28
2/11/2021 9:00:00 PM 1.08 33.944 0.502 8.78 2.45 14.22
2/11/2021 9:15:00 PM 1.05 33.89 0.503 8.74 2.52 14.16
2/11/2021 9:30:00 PM 1.03 33.854 0.504 8.7 2.45 14.1
2/11/2021 9:45:00 PM 1 33.8 0.505 8.66 2.44 14.04
2/11/2021 10:00:00 PM 0.98 33.764 0.507 8.62 2.47 13.98
2/11/2021 10:15:00 PM 0.95 33.71 0.507 8.56 2.42 13.94
2/11/2021 10:30:00 PM 0.91 33.638 0.508 8.51 2.42 13.89
2/11/2021 10:45:00 PM 0.88 33.584 0.508 8.45 2.48 13.85
2/11/2021 11:00:00 PM 0.84 33.512 0.508 8.4 2.39 13.82
2/11/2021 11:15:00 PM 0.81 33.458 0.508 8.34 2.4 13.78
2/11/2021 11:30:00 PM 0.77 33.386 0.508 8.26 2.43 13.75
2/11/2021 11:45:00 PM 0.74 33.332 0.508 8.21 2.42 13.72
2/12/2021 12:00:00 AM 0.7 33.26 0.508 8.16 2.43 13.69
2/12/2021 12:15:00 AM 0.65 33.17 0.508 8.11 2.39 13.67
2/12/2021 12:30:00 AM 0.6 33.08 0.509 8.07 2.44 13.65
2/12/2021 12:45:00 AM 0.54 32.972 0.509 8.01 2.39 13.64
2/12/2021 1:00:00 AM 0.49 32.882 0.508 7.99 2.38 13.64
2/12/2021 1:15:00 AM 0.44 32.792 0.508 7.97 2.39 13.63
2/12/2021 1:30:00 AM 0.38 32.684 0.507 7.95 2.35 13.63
2/12/2021 1:45:00 AM 0.33 32.594 0.507 7.91 2.38 13.64
2/12/2021 2:00:00 AM 0.27 32.486 0.506 7.9 2.31 13.65
2/12/2021 2:15:00 AM 0.23 32.414 0.506 7.88 2.38 13.66

These are provisional data and have not been subject to a quality assurance process, but rather are the raw data reported by the instrument.
H: value is above sensor operating range
L: value is below sensor operating range
Offline: station is not reporting data
NC: parameter is not collected at site

Data Availability & Limitations

Uncertainty and potential for error can be associated with environmental monitoring data. Provisional data have not been subject to a quality assurance process, but rather are the raw data reported by the instrument. Data users are cautioned to consider carefully the provisional nature of the information before using it for decisions that concern personal or public safety or the conduct of business that involves substantial monetary or operational consequences.

Approved data are currently available by request by emailing: srbc@srbc.net. Approved data have been subject to a quality assurance process to correct for equipment or fouling drift. Data recorded during equipment malfunctions have been removed.

View Historical Stations that have been discontinued.